<?xml version="1.0" encoding="UTF-8" standalone="no" ?>
<gpx xmlns="http://www.topografix.com/GPX/1/1" xmlns:xsi="http://www.w3.org/2001/XMLSchema-instance" xsi:schemaLocation="http://www.topografix.com/GPX/1/1 http://www.topografix.com/GPX/1/1/gpx.xsd" version="1.1" creator="VisuGPX - https://www.visugpx.com">
  <metadata>
    <name>Doubs : cirque de Consolation</name>
    <desc><![CDATA[Un petit passage "vertigineux" de la source du Lançot à la source du Tabourot, entièrement câblé (main courante) et escaliers accrochés à la paroi pour descendre à la source du Tabourot ...]]></desc>
  </metadata>
  <trk>
    <name><![CDATA[cirque de Consolation]]></name>
    <trkseg>
      <trkpt lat="47.14861" lon="6.6076">
        <ele>812.11</ele>
        <time>2022-08-05T08:23:36Z</time>
      </trkpt>
      <trkpt lat="47.14861" lon="6.6076">
        <ele>812.11</ele>
        <time>2022-08-05T08:23:37Z</time>
      </trkpt>
      <trkpt lat="47.14862" lon="6.6076">
        <ele>853.47</ele>
        <time>2022-08-05T08:23:41Z</time>
      </trkpt>
      <trkpt lat="47.14862" lon="6.6076">
        <ele>857.54</ele>
        <time>2022-08-05T08:23:42Z</time>
      </trkpt>
      <trkpt lat="47.14862" lon="6.6076">
        <ele>857.54</ele>
        <time>2022-08-05T08:23:43Z</time>
      </trkpt>
      <trkpt lat="47.14862" lon="6.60761">
        <ele>858.94</ele>
        <time>2022-08-05T08:23:45Z</time>
      </trkpt>
      <trkpt lat="47.14863" lon="6.60761">
        <ele>855.5</ele>
        <time>2022-08-05T08:23:46Z</time>
      </trkpt>
      <trkpt lat="47.14863" lon="6.60761">
        <ele>855.5</ele>
        <time>2022-08-05T08:23:47Z</time>
      </trkpt>
      <trkpt lat="47.14864" lon="6.60762">
        <ele>854.27</ele>
        <time>2022-08-05T08:23:49Z</time>
      </trkpt>
      <trkpt lat="47.14878" lon="6.60769">
        <ele>854.26</ele>
        <time>2022-08-05T08:24:03Z</time>
      </trkpt>
      <trkpt lat="47.14887" lon="6.60769">
        <ele>853.49</ele>
        <time>2022-08-05T08:24:13Z</time>
      </trkpt>
      <trkpt lat="47.14891" lon="6.60767">
        <ele>853.51</ele>
        <time>2022-08-05T08:24:15Z</time>
      </trkpt>
      <trkpt lat="47.14901" lon="6.60762">
        <ele>851.55</ele>
        <time>2022-08-05T08:24:27Z</time>
      </trkpt>
      <trkpt lat="47.14903" lon="6.60761">
        <ele>851.54</ele>
        <time>2022-08-05T08:24:29Z</time>
      </trkpt>
      <trkpt lat="47.14918" lon="6.60745">
        <ele>849.83</ele>
        <time>2022-08-05T08:24:44Z</time>
      </trkpt>
      <trkpt lat="47.1493" lon="6.60735">
        <ele>848.24</ele>
        <time>2022-08-05T08:24:57Z</time>
      </trkpt>
      <trkpt lat="47.14939" lon="6.60728">
        <ele>847.44</ele>
        <time>2022-08-05T08:25:15Z</time>
      </trkpt>
      <trkpt lat="47.14947" lon="6.60727">
        <ele>847.37</ele>
        <time>2022-08-05T08:25:39Z</time>
      </trkpt>
      <trkpt lat="47.14952" lon="6.60722">
        <ele>846.55</ele>
        <time>2022-08-05T08:25:56Z</time>
      </trkpt>
      <trkpt lat="47.14953" lon="6.60718">
        <ele>846.48</ele>
        <time>2022-08-05T08:26:06Z</time>
      </trkpt>
      <trkpt lat="47.14953" lon="6.60715">
        <ele>846.45</ele>
        <time>2022-08-05T08:26:08Z</time>
      </trkpt>
      <trkpt lat="47.14956" lon="6.60708">
        <ele>845.38</ele>
        <time>2022-08-05T08:26:23Z</time>
      </trkpt>
      <trkpt lat="47.14957" lon="6.60704">
        <ele>844.17</ele>
        <time>2022-08-05T08:26:25Z</time>
      </trkpt>
      <trkpt lat="47.14966" lon="6.60698">
        <ele>843.27</ele>
        <time>2022-08-05T08:26:36Z</time>
      </trkpt>
      <trkpt lat="47.14972" lon="6.60696">
        <ele>843.31</ele>
        <time>2022-08-05T08:26:50Z</time>
      </trkpt>
      <trkpt lat="47.14967" lon="6.60691">
        <ele>843.3</ele>
        <time>2022-08-05T08:27:03Z</time>
      </trkpt>
      <trkpt lat="47.14967" lon="6.60687">
        <ele>843.29</ele>
        <time>2022-08-05T08:27:25Z</time>
      </trkpt>
      <trkpt lat="47.1496" lon="6.60676">
        <ele>843.26</ele>
        <time>2022-08-05T08:27:36Z</time>
      </trkpt>
      <trkpt lat="47.14953" lon="6.60651">
        <ele>842.27</ele>
        <time>2022-08-05T08:27:53Z</time>
      </trkpt>
      <trkpt lat="47.14951" lon="6.60643">
        <ele>841.37</ele>
        <time>2022-08-05T08:28:07Z</time>
      </trkpt>
      <trkpt lat="47.14941" lon="6.60623">
        <ele>839.62</ele>
        <time>2022-08-05T08:28:21Z</time>
      </trkpt>
      <trkpt lat="47.14937" lon="6.60617">
        <ele>829.86</ele>
        <time>2022-08-05T08:28:26Z</time>
      </trkpt>
      <trkpt lat="47.14937" lon="6.60615">
        <ele>832.96</ele>
        <time>2022-08-05T08:28:27Z</time>
      </trkpt>
      <trkpt lat="47.14936" lon="6.60614">
        <ele>841.55</ele>
        <time>2022-08-05T08:28:28Z</time>
      </trkpt>
      <trkpt lat="47.14936" lon="6.60613">
        <ele>841.55</ele>
        <time>2022-08-05T08:28:29Z</time>
      </trkpt>
      <trkpt lat="47.14934" lon="6.60606">
        <ele>838.76</ele>
        <time>2022-08-05T08:28:33Z</time>
      </trkpt>
      <trkpt lat="47.1493" lon="6.60589">
        <ele>837.29</ele>
        <time>2022-08-05T08:28:47Z</time>
      </trkpt>
      <trkpt lat="47.14927" lon="6.6058">
        <ele>837.23</ele>
        <time>2022-08-05T08:28:58Z</time>
      </trkpt>
      <trkpt lat="47.14909" lon="6.60558">
        <ele>836.21</ele>
        <time>2022-08-05T08:29:16Z</time>
      </trkpt>
      <trkpt lat="47.14896" lon="6.60533">
        <ele>835.44</ele>
        <time>2022-08-05T08:29:32Z</time>
      </trkpt>
      <trkpt lat="47.14887" lon="6.60497">
        <ele>832.95</ele>
        <time>2022-08-05T08:29:53Z</time>
      </trkpt>
      <trkpt lat="47.14886" lon="6.60491">
        <ele>826.82</ele>
        <time>2022-08-05T08:29:58Z</time>
      </trkpt>
      <trkpt lat="47.14886" lon="6.60491">
        <ele>833.48</ele>
        <time>2022-08-05T08:29:59Z</time>
      </trkpt>
      <trkpt lat="47.14886" lon="6.6049">
        <ele>835.01</ele>
        <time>2022-08-05T08:30:01Z</time>
      </trkpt>
      <trkpt lat="47.14886" lon="6.60489">
        <ele>832.43</ele>
        <time>2022-08-05T08:30:05Z</time>
      </trkpt>
      <trkpt lat="47.14889" lon="6.60472">
        <ele>831.43</ele>
        <time>2022-08-05T08:30:21Z</time>
      </trkpt>
      <trkpt lat="47.14886" lon="6.60452">
        <ele>827.86</ele>
        <time>2022-08-05T08:30:36Z</time>
      </trkpt>
      <trkpt lat="47.14881" lon="6.6042">
        <ele>825.11</ele>
        <time>2022-08-05T08:30:54Z</time>
      </trkpt>
      <trkpt lat="47.14884" lon="6.60407">
        <ele>821.52</ele>
        <time>2022-08-05T08:31:08Z</time>
      </trkpt>
      <trkpt lat="47.14887" lon="6.60396">
        <ele>817.86</ele>
        <time>2022-08-05T08:31:18Z</time>
      </trkpt>
      <trkpt lat="47.14892" lon="6.60382">
        <ele>815.15</ele>
        <time>2022-08-05T08:31:32Z</time>
      </trkpt>
      <trkpt lat="47.14897" lon="6.60373">
        <ele>811.46</ele>
        <time>2022-08-05T08:31:48Z</time>
      </trkpt>
      <trkpt lat="47.14901" lon="6.60365">
        <ele>807.9</ele>
        <time>2022-08-05T08:31:58Z</time>
      </trkpt>
      <trkpt lat="47.14905" lon="6.60354">
        <ele>804.23</ele>
        <time>2022-08-05T08:32:09Z</time>
      </trkpt>
      <trkpt lat="47.14909" lon="6.60342">
        <ele>801.13</ele>
        <time>2022-08-05T08:32:20Z</time>
      </trkpt>
      <trkpt lat="47.14911" lon="6.6033">
        <ele>797.79</ele>
        <time>2022-08-05T08:32:32Z</time>
      </trkpt>
      <trkpt lat="47.14915" lon="6.60318">
        <ele>795.1</ele>
        <time>2022-08-05T08:32:50Z</time>
      </trkpt>
      <trkpt lat="47.14916" lon="6.60317">
        <ele>793.93</ele>
        <time>2022-08-05T08:32:58Z</time>
      </trkpt>
      <trkpt lat="47.14916" lon="6.60314">
        <ele>793.79</ele>
        <time>2022-08-05T08:33:30Z</time>
      </trkpt>
      <trkpt lat="47.14919" lon="6.60314">
        <ele>793.68</ele>
        <time>2022-08-05T08:34:39Z</time>
      </trkpt>
      <trkpt lat="47.1492" lon="6.60318">
        <ele>793.66</ele>
        <time>2022-08-05T08:35:50Z</time>
      </trkpt>
      <trkpt lat="47.1492" lon="6.60313">
        <ele>793.66</ele>
        <time>2022-08-05T08:36:20Z</time>
      </trkpt>
      <trkpt lat="47.14916" lon="6.60304">
        <ele>791.96</ele>
        <time>2022-08-05T08:36:39Z</time>
      </trkpt>
      <trkpt lat="47.14917" lon="6.60291">
        <ele>788.37</ele>
        <time>2022-08-05T08:36:53Z</time>
      </trkpt>
      <trkpt lat="47.14917" lon="6.6028">
        <ele>784.97</ele>
        <time>2022-08-05T08:37:05Z</time>
      </trkpt>
      <trkpt lat="47.14916" lon="6.6027">
        <ele>781.3</ele>
        <time>2022-08-05T08:37:17Z</time>
      </trkpt>
      <trkpt lat="47.14918" lon="6.60258">
        <ele>777.47</ele>
        <time>2022-08-05T08:37:32Z</time>
      </trkpt>
      <trkpt lat="47.14923" lon="6.60248">
        <ele>773.37</ele>
        <time>2022-08-05T08:37:47Z</time>
      </trkpt>
      <trkpt lat="47.14921" lon="6.60236">
        <ele>769.75</ele>
        <time>2022-08-05T08:37:59Z</time>
      </trkpt>
      <trkpt lat="47.14922" lon="6.60228">
        <ele>766.18</ele>
        <time>2022-08-05T08:38:10Z</time>
      </trkpt>
      <trkpt lat="47.14926" lon="6.6022">
        <ele>762.67</ele>
        <time>2022-08-05T08:38:22Z</time>
      </trkpt>
      <trkpt lat="47.14935" lon="6.60208">
        <ele>758.76</ele>
        <time>2022-08-05T08:38:38Z</time>
      </trkpt>
      <trkpt lat="47.14939" lon="6.60205">
        <ele>756.18</ele>
        <time>2022-08-05T08:38:45Z</time>
      </trkpt>
      <trkpt lat="47.14945" lon="6.60201">
        <ele>753.63</ele>
        <time>2022-08-05T08:38:53Z</time>
      </trkpt>
      <trkpt lat="47.14955" lon="6.60192">
        <ele>750.31</ele>
        <time>2022-08-05T08:39:08Z</time>
      </trkpt>
      <trkpt lat="47.14965" lon="6.60182">
        <ele>746.87</ele>
        <time>2022-08-05T08:39:21Z</time>
      </trkpt>
      <trkpt lat="47.14974" lon="6.60174">
        <ele>743.25</ele>
        <time>2022-08-05T08:39:34Z</time>
      </trkpt>
      <trkpt lat="47.14982" lon="6.60167">
        <ele>739.47</ele>
        <time>2022-08-05T08:39:47Z</time>
      </trkpt>
      <trkpt lat="47.1499" lon="6.60163">
        <ele>736.4</ele>
        <time>2022-08-05T08:39:59Z</time>
      </trkpt>
      <trkpt lat="47.15" lon="6.60157">
        <ele>733.69</ele>
        <time>2022-08-05T08:40:22Z</time>
      </trkpt>
      <trkpt lat="47.15012" lon="6.60154">
        <ele>731.32</ele>
        <time>2022-08-05T08:40:45Z</time>
      </trkpt>
      <trkpt lat="47.15023" lon="6.60144">
        <ele>728.57</ele>
        <time>2022-08-05T08:41:03Z</time>
      </trkpt>
      <trkpt lat="47.15033" lon="6.60124">
        <ele>726.11</ele>
        <time>2022-08-05T08:41:21Z</time>
      </trkpt>
      <trkpt lat="47.15046" lon="6.60111">
        <ele>722.51</ele>
        <time>2022-08-05T08:41:37Z</time>
      </trkpt>
      <trkpt lat="47.15059" lon="6.60095">
        <ele>718.62</ele>
        <time>2022-08-05T08:41:53Z</time>
      </trkpt>
      <trkpt lat="47.15069" lon="6.60079">
        <ele>715.12</ele>
        <time>2022-08-05T08:42:08Z</time>
      </trkpt>
      <trkpt lat="47.15081" lon="6.60064">
        <ele>712.43</ele>
        <time>2022-08-05T08:42:23Z</time>
      </trkpt>
      <trkpt lat="47.15088" lon="6.60054">
        <ele>709.24</ele>
        <time>2022-08-05T08:42:33Z</time>
      </trkpt>
      <trkpt lat="47.15096" lon="6.60038">
        <ele>706.6</ele>
        <time>2022-08-05T08:42:47Z</time>
      </trkpt>
      <trkpt lat="47.15101" lon="6.60026">
        <ele>703.05</ele>
        <time>2022-08-05T08:43:01Z</time>
      </trkpt>
      <trkpt lat="47.15106" lon="6.60017">
        <ele>699.31</ele>
        <time>2022-08-05T08:43:13Z</time>
      </trkpt>
      <trkpt lat="47.15111" lon="6.60009">
        <ele>695.34</ele>
        <time>2022-08-05T08:43:26Z</time>
      </trkpt>
      <trkpt lat="47.15123" lon="6.60003">
        <ele>693.61</ele>
        <time>2022-08-05T08:43:38Z</time>
      </trkpt>
      <trkpt lat="47.15128" lon="6.60002">
        <ele>693.58</ele>
        <time>2022-08-05T08:43:54Z</time>
      </trkpt>
      <trkpt lat="47.15128" lon="6.60007">
        <ele>693.43</ele>
        <time>2022-08-05T08:44:18Z</time>
      </trkpt>
      <trkpt lat="47.15131" lon="6.60016">
        <ele>693.32</ele>
        <time>2022-08-05T08:44:36Z</time>
      </trkpt>
      <trkpt lat="47.15138" lon="6.60031">
        <ele>692.4</ele>
        <time>2022-08-05T08:44:51Z</time>
      </trkpt>
      <trkpt lat="47.1514" lon="6.6004">
        <ele>692.35</ele>
        <time>2022-08-05T08:44:56Z</time>
      </trkpt>
      <trkpt lat="47.15137" lon="6.60052">
        <ele>691.44</ele>
        <time>2022-08-05T08:45:02Z</time>
      </trkpt>
      <trkpt lat="47.15136" lon="6.60056">
        <ele>691.45</ele>
        <time>2022-08-05T08:45:04Z</time>
      </trkpt>
      <trkpt lat="47.15131" lon="6.6008">
        <ele>691.37</ele>
        <time>2022-08-05T08:45:21Z</time>
      </trkpt>
      <trkpt lat="47.15123" lon="6.60098">
        <ele>690.5</ele>
        <time>2022-08-05T08:45:35Z</time>
      </trkpt>
      <trkpt lat="47.15115" lon="6.6012">
        <ele>688.59</ele>
        <time>2022-08-05T08:45:52Z</time>
      </trkpt>
      <trkpt lat="47.15102" lon="6.60138">
        <ele>687.58</ele>
        <time>2022-08-05T08:46:07Z</time>
      </trkpt>
      <trkpt lat="47.15094" lon="6.60156">
        <ele>684.98</ele>
        <time>2022-08-05T08:46:25Z</time>
      </trkpt>
      <trkpt lat="47.15077" lon="6.60172">
        <ele>681.61</ele>
        <time>2022-08-05T08:46:45Z</time>
      </trkpt>
      <trkpt lat="47.15065" lon="6.60194">
        <ele>679.78</ele>
        <time>2022-08-05T08:47:00Z</time>
      </trkpt>
      <trkpt lat="47.15061" lon="6.60214">
        <ele>678.73</ele>
        <time>2022-08-05T08:47:15Z</time>
      </trkpt>
      <trkpt lat="47.15069" lon="6.60238">
        <ele>678.6</ele>
        <time>2022-08-05T08:47:31Z</time>
      </trkpt>
      <trkpt lat="47.15078" lon="6.60268">
        <ele>678.33</ele>
        <time>2022-08-05T08:47:49Z</time>
      </trkpt>
      <trkpt lat="47.15082" lon="6.60299">
        <ele>678.14</ele>
        <time>2022-08-05T08:48:02Z</time>
      </trkpt>
      <trkpt lat="47.15084" lon="6.60319">
        <ele>677.94</ele>
        <time>2022-08-05T08:48:13Z</time>
      </trkpt>
      <trkpt lat="47.15083" lon="6.60338">
        <ele>677.76</ele>
        <time>2022-08-05T08:48:25Z</time>
      </trkpt>
      <trkpt lat="47.15083" lon="6.6035">
        <ele>677.67</ele>
        <time>2022-08-05T08:48:32Z</time>
      </trkpt>
      <trkpt lat="47.15081" lon="6.6038">
        <ele>676.65</ele>
        <time>2022-08-05T08:48:50Z</time>
      </trkpt>
      <trkpt lat="47.15085" lon="6.60403">
        <ele>676.5</ele>
        <time>2022-08-05T08:49:06Z</time>
      </trkpt>
      <trkpt lat="47.15089" lon="6.60426">
        <ele>675.63</ele>
        <time>2022-08-05T08:49:19Z</time>
      </trkpt>
      <trkpt lat="47.15097" lon="6.60453">
        <ele>675.5</ele>
        <time>2022-08-05T08:49:34Z</time>
      </trkpt>
      <trkpt lat="47.151" lon="6.60472">
        <ele>675.42</ele>
        <time>2022-08-05T08:49:45Z</time>
      </trkpt>
      <trkpt lat="47.15106" lon="6.60495">
        <ele>675.31</ele>
        <time>2022-08-05T08:50:00Z</time>
      </trkpt>
      <trkpt lat="47.1511" lon="6.60508">
        <ele>675.18</ele>
        <time>2022-08-05T08:50:12Z</time>
      </trkpt>
      <trkpt lat="47.15122" lon="6.60546">
        <ele>674.97</ele>
        <time>2022-08-05T08:50:33Z</time>
      </trkpt>
      <trkpt lat="47.15133" lon="6.6057">
        <ele>677.2</ele>
        <time>2022-08-05T08:50:48Z</time>
      </trkpt>
      <trkpt lat="47.1514" lon="6.60592">
        <ele>677.03</ele>
        <time>2022-08-05T08:51:01Z</time>
      </trkpt>
      <trkpt lat="47.15143" lon="6.60612">
        <ele>676.85</ele>
        <time>2022-08-05T08:51:13Z</time>
      </trkpt>
      <trkpt lat="47.15144" lon="6.60614">
        <ele>676.83</ele>
        <time>2022-08-05T08:51:14Z</time>
      </trkpt>
      <trkpt lat="47.15147" lon="6.60625">
        <ele>676.73</ele>
        <time>2022-08-05T08:51:21Z</time>
      </trkpt>
      <trkpt lat="47.15147" lon="6.60629">
        <ele>674.42</ele>
        <time>2022-08-05T08:51:23Z</time>
      </trkpt>
      <trkpt lat="47.15147" lon="6.60631">
        <ele>674.42</ele>
        <time>2022-08-05T08:51:24Z</time>
      </trkpt>
      <trkpt lat="47.15147" lon="6.60636">
        <ele>674.36</ele>
        <time>2022-08-05T08:51:27Z</time>
      </trkpt>
      <trkpt lat="47.15147" lon="6.60653">
        <ele>672.67</ele>
        <time>2022-08-05T08:51:37Z</time>
      </trkpt>
      <trkpt lat="47.15147" lon="6.6066">
        <ele>672.64</ele>
        <time>2022-08-05T08:51:41Z</time>
      </trkpt>
      <trkpt lat="47.15146" lon="6.60683">
        <ele>672.58</ele>
        <time>2022-08-05T08:51:56Z</time>
      </trkpt>
      <trkpt lat="47.1515" lon="6.60706">
        <ele>671.57</ele>
        <time>2022-08-05T08:52:13Z</time>
      </trkpt>
      <trkpt lat="47.15155" lon="6.60718">
        <ele>670.79</ele>
        <time>2022-08-05T08:52:20Z</time>
      </trkpt>
      <trkpt lat="47.15153" lon="6.60747">
        <ele>669.18</ele>
        <time>2022-08-05T08:52:38Z</time>
      </trkpt>
      <trkpt lat="47.15153" lon="6.60751">
        <ele>669.17</ele>
        <time>2022-08-05T08:52:40Z</time>
      </trkpt>
      <trkpt lat="47.15161" lon="6.60785">
        <ele>669.16</ele>
        <time>2022-08-05T08:53:00Z</time>
      </trkpt>
      <trkpt lat="47.15163" lon="6.608">
        <ele>671.58</ele>
        <time>2022-08-05T08:53:09Z</time>
      </trkpt>
      <trkpt lat="47.15161" lon="6.60816">
        <ele>673.03</ele>
        <time>2022-08-05T08:53:21Z</time>
      </trkpt>
      <trkpt lat="47.15154" lon="6.60823">
        <ele>670.62</ele>
        <time>2022-08-05T08:53:46Z</time>
      </trkpt>
      <trkpt lat="47.1515" lon="6.60828">
        <ele>670.57</ele>
        <time>2022-08-05T08:54:02Z</time>
      </trkpt>
      <trkpt lat="47.15152" lon="6.60834">
        <ele>670.48</ele>
        <time>2022-08-05T08:54:26Z</time>
      </trkpt>
      <trkpt lat="47.15157" lon="6.60839">
        <ele>666.86</ele>
        <time>2022-08-05T08:54:39Z</time>
      </trkpt>
      <trkpt lat="47.15162" lon="6.60836">
        <ele>662.95</ele>
        <time>2022-08-05T08:54:52Z</time>
      </trkpt>
      <trkpt lat="47.15168" lon="6.60835">
        <ele>658.99</ele>
        <time>2022-08-05T08:55:08Z</time>
      </trkpt>
      <trkpt lat="47.15169" lon="6.60835">
        <ele>657.27</ele>
        <time>2022-08-05T08:55:27Z</time>
      </trkpt>
      <trkpt lat="47.1517" lon="6.60842">
        <ele>655.35</ele>
        <time>2022-08-05T08:55:49Z</time>
      </trkpt>
      <trkpt lat="47.15166" lon="6.60858">
        <ele>651.95</ele>
        <time>2022-08-05T08:56:08Z</time>
      </trkpt>
      <trkpt lat="47.1516" lon="6.60863">
        <ele>650.18</ele>
        <time>2022-08-05T08:56:20Z</time>
      </trkpt>
      <trkpt lat="47.15157" lon="6.60868">
        <ele>650.25</ele>
        <time>2022-08-05T08:56:26Z</time>
      </trkpt>
      <trkpt lat="47.15153" lon="6.60872">
        <ele>648.84</ele>
        <time>2022-08-05T08:56:40Z</time>
      </trkpt>
      <trkpt lat="47.1515" lon="6.60875">
        <ele>648.85</ele>
        <time>2022-08-05T08:56:43Z</time>
      </trkpt>
      <trkpt lat="47.15149" lon="6.60877">
        <ele>647.03</ele>
        <time>2022-08-05T08:56:53Z</time>
      </trkpt>
      <trkpt lat="47.15148" lon="6.60879">
        <ele>645.91</ele>
        <time>2022-08-05T08:56:54Z</time>
      </trkpt>
      <trkpt lat="47.15144" lon="6.60884">
        <ele>645.01</ele>
        <time>2022-08-05T08:56:58Z</time>
      </trkpt>
      <trkpt lat="47.15142" lon="6.60888">
        <ele>645.02</ele>
        <time>2022-08-05T08:57:00Z</time>
      </trkpt>
      <trkpt lat="47.15138" lon="6.60893">
        <ele>643.38</ele>
        <time>2022-08-05T08:57:10Z</time>
      </trkpt>
      <trkpt lat="47.15135" lon="6.60897">
        <ele>643.4</ele>
        <time>2022-08-05T08:57:13Z</time>
      </trkpt>
      <trkpt lat="47.15132" lon="6.609">
        <ele>640.43</ele>
        <time>2022-08-05T08:57:22Z</time>
      </trkpt>
      <trkpt lat="47.15126" lon="6.609">
        <ele>640.54</ele>
        <time>2022-08-05T08:57:25Z</time>
      </trkpt>
      <trkpt lat="47.1512" lon="6.60902">
        <ele>637.62</ele>
        <time>2022-08-05T08:57:36Z</time>
      </trkpt>
      <trkpt lat="47.15114" lon="6.60902">
        <ele>636.82</ele>
        <time>2022-08-05T08:57:41Z</time>
      </trkpt>
      <trkpt lat="47.15109" lon="6.60901">
        <ele>637.07</ele>
        <time>2022-08-05T08:57:53Z</time>
      </trkpt>
      <trkpt lat="47.15104" lon="6.60902">
        <ele>637.09</ele>
        <time>2022-08-05T08:57:54Z</time>
      </trkpt>
      <trkpt lat="47.15099" lon="6.60902">
        <ele>637.14</ele>
        <time>2022-08-05T08:57:58Z</time>
      </trkpt>
      <trkpt lat="47.15095" lon="6.60902">
        <ele>636.21</ele>
        <time>2022-08-05T08:58:02Z</time>
      </trkpt>
      <trkpt lat="47.15081" lon="6.60903">
        <ele>634.5</ele>
        <time>2022-08-05T08:58:10Z</time>
      </trkpt>
      <trkpt lat="47.15069" lon="6.60905">
        <ele>632.82</ele>
        <time>2022-08-05T08:58:20Z</time>
      </trkpt>
      <trkpt lat="47.1506" lon="6.60905">
        <ele>632.87</ele>
        <time>2022-08-05T08:58:24Z</time>
      </trkpt>
      <trkpt lat="47.15053" lon="6.60906">
        <ele>632.1</ele>
        <time>2022-08-05T08:58:28Z</time>
      </trkpt>
      <trkpt lat="47.15045" lon="6.60908">
        <ele>631.23</ele>
        <time>2022-08-05T08:58:30Z</time>
      </trkpt>
      <trkpt lat="47.15038" lon="6.6091">
        <ele>630.53</ele>
        <time>2022-08-05T08:58:33Z</time>
      </trkpt>
      <trkpt lat="47.15033" lon="6.60912">
        <ele>629.03</ele>
        <time>2022-08-05T08:58:47Z</time>
      </trkpt>
      <trkpt lat="47.15028" lon="6.60913">
        <ele>627.66</ele>
        <time>2022-08-05T08:58:57Z</time>
      </trkpt>
      <trkpt lat="47.15025" lon="6.60924">
        <ele>626.84</ele>
        <time>2022-08-05T08:59:07Z</time>
      </trkpt>
      <trkpt lat="47.1502" lon="6.60935">
        <ele>626.15</ele>
        <time>2022-08-05T08:59:12Z</time>
      </trkpt>
      <trkpt lat="47.15017" lon="6.60945">
        <ele>624.71</ele>
        <time>2022-08-05T08:59:22Z</time>
      </trkpt>
      <trkpt lat="47.15013" lon="6.60958">
        <ele>624.75</ele>
        <time>2022-08-05T08:59:24Z</time>
      </trkpt>
      <trkpt lat="47.15011" lon="6.60974">
        <ele>623.11</ele>
        <time>2022-08-05T08:59:30Z</time>
      </trkpt>
      <trkpt lat="47.1501" lon="6.60979">
        <ele>620.41</ele>
        <time>2022-08-05T08:59:42Z</time>
      </trkpt>
      <trkpt lat="47.15008" lon="6.60988">
        <ele>619.61</ele>
        <time>2022-08-05T08:59:53Z</time>
      </trkpt>
      <trkpt lat="47.15006" lon="6.61002">
        <ele>618.88</ele>
        <time>2022-08-05T09:00:01Z</time>
      </trkpt>
      <trkpt lat="47.15007" lon="6.6101">
        <ele>618.09</ele>
        <time>2022-08-05T09:00:04Z</time>
      </trkpt>
      <trkpt lat="47.15009" lon="6.61013">
        <ele>617.62</ele>
        <time>2022-08-05T09:00:16Z</time>
      </trkpt>
      <trkpt lat="47.15014" lon="6.61031">
        <ele>618.07</ele>
        <time>2022-08-05T09:00:34Z</time>
      </trkpt>
      <trkpt lat="47.15016" lon="6.61036">
        <ele>617.79</ele>
        <time>2022-08-05T09:01:35Z</time>
      </trkpt>
      <trkpt lat="47.15019" lon="6.61043">
        <ele>618.59</ele>
        <time>2022-08-05T09:02:36Z</time>
      </trkpt>
      <trkpt lat="47.15021" lon="6.61049">
        <ele>610.59</ele>
        <time>2022-08-05T09:02:46Z</time>
      </trkpt>
      <trkpt lat="47.15023" lon="6.61055">
        <ele>610.59</ele>
        <time>2022-08-05T09:02:47Z</time>
      </trkpt>
      <trkpt lat="47.15025" lon="6.61061">
        <ele>621.58</ele>
        <time>2022-08-05T09:02:51Z</time>
      </trkpt>
      <trkpt lat="47.15027" lon="6.61065">
        <ele>619.16</ele>
        <time>2022-08-05T09:02:56Z</time>
      </trkpt>
      <trkpt lat="47.15029" lon="6.61069">
        <ele>617.51</ele>
        <time>2022-08-05T09:03:13Z</time>
      </trkpt>
      <trkpt lat="47.15031" lon="6.61074">
        <ele>616.99</ele>
        <time>2022-08-05T09:03:26Z</time>
      </trkpt>
      <trkpt lat="47.15033" lon="6.61077">
        <ele>617.3</ele>
        <time>2022-08-05T09:03:40Z</time>
      </trkpt>
      <trkpt lat="47.15035" lon="6.6108">
        <ele>617.32</ele>
        <time>2022-08-05T09:03:42Z</time>
      </trkpt>
      <trkpt lat="47.15036" lon="6.61084">
        <ele>619.95</ele>
        <time>2022-08-05T09:03:44Z</time>
      </trkpt>
      <trkpt lat="47.15038" lon="6.61086">
        <ele>623.48</ele>
        <time>2022-08-05T09:03:58Z</time>
      </trkpt>
      <trkpt lat="47.15039" lon="6.61087">
        <ele>623.6</ele>
        <time>2022-08-05T09:04:05Z</time>
      </trkpt>
      <trkpt lat="47.1504" lon="6.6109">
        <ele>624.73</ele>
        <time>2022-08-05T09:04:13Z</time>
      </trkpt>
      <trkpt lat="47.15045" lon="6.61099">
        <ele>624.74</ele>
        <time>2022-08-05T09:04:15Z</time>
      </trkpt>
      <trkpt lat="47.15046" lon="6.61102">
        <ele>625.62</ele>
        <time>2022-08-05T09:04:25Z</time>
      </trkpt>
      <trkpt lat="47.15048" lon="6.61104">
        <ele>626.84</ele>
        <time>2022-08-05T09:04:29Z</time>
      </trkpt>
      <trkpt lat="47.1505" lon="6.61107">
        <ele>627.82</ele>
        <time>2022-08-05T09:04:38Z</time>
      </trkpt>
      <trkpt lat="47.15052" lon="6.61109">
        <ele>629.45</ele>
        <time>2022-08-05T09:04:50Z</time>
      </trkpt>
      <trkpt lat="47.15053" lon="6.61111">
        <ele>629.44</ele>
        <time>2022-08-05T09:04:52Z</time>
      </trkpt>
      <trkpt lat="47.15055" lon="6.61115">
        <ele>629.35</ele>
        <time>2022-08-05T09:05:01Z</time>
      </trkpt>
      <trkpt lat="47.15058" lon="6.61117">
        <ele>630.13</ele>
        <time>2022-08-05T09:05:07Z</time>
      </trkpt>
      <trkpt lat="47.15062" lon="6.61123">
        <ele>632.03</ele>
        <time>2022-08-05T09:05:15Z</time>
      </trkpt>
      <trkpt lat="47.15065" lon="6.61126">
        <ele>631.9</ele>
        <time>2022-08-05T09:05:20Z</time>
      </trkpt>
      <trkpt lat="47.15067" lon="6.61129">
        <ele>632.64</ele>
        <time>2022-08-05T09:05:26Z</time>
      </trkpt>
      <trkpt lat="47.1507" lon="6.61134">
        <ele>632.55</ele>
        <time>2022-08-05T09:05:31Z</time>
      </trkpt>
      <trkpt lat="47.15072" lon="6.61138">
        <ele>633.2</ele>
        <time>2022-08-05T09:05:41Z</time>
      </trkpt>
      <trkpt lat="47.15073" lon="6.61141">
        <ele>633.86</ele>
        <time>2022-08-05T09:05:54Z</time>
      </trkpt>
      <trkpt lat="47.15075" lon="6.61145">
        <ele>634.45</ele>
        <time>2022-08-05T09:06:06Z</time>
      </trkpt>
      <trkpt lat="47.15076" lon="6.61146">
        <ele>636.76</ele>
        <time>2022-08-05T09:06:20Z</time>
      </trkpt>
      <trkpt lat="47.15077" lon="6.6115">
        <ele>637.35</ele>
        <time>2022-08-05T09:06:37Z</time>
      </trkpt>
      <trkpt lat="47.15082" lon="6.61156">
        <ele>637.87</ele>
        <time>2022-08-05T09:06:53Z</time>
      </trkpt>
      <trkpt lat="47.15083" lon="6.61161">
        <ele>637.66</ele>
        <time>2022-08-05T09:07:07Z</time>
      </trkpt>
      <trkpt lat="47.15085" lon="6.61165">
        <ele>638.55</ele>
        <time>2022-08-05T09:07:18Z</time>
      </trkpt>
      <trkpt lat="47.15088" lon="6.6117">
        <ele>639.31</ele>
        <time>2022-08-05T09:07:20Z</time>
      </trkpt>
      <trkpt lat="47.15089" lon="6.61174">
        <ele>639.29</ele>
        <time>2022-08-05T09:07:23Z</time>
      </trkpt>
      <trkpt lat="47.15093" lon="6.6118">
        <ele>636.04</ele>
        <time>2022-08-05T09:07:30Z</time>
      </trkpt>
      <trkpt lat="47.15095" lon="6.61184">
        <ele>639.84</ele>
        <time>2022-08-05T09:07:31Z</time>
      </trkpt>
      <trkpt lat="47.15097" lon="6.61188">
        <ele>641.88</ele>
        <time>2022-08-05T09:07:33Z</time>
      </trkpt>
      <trkpt lat="47.15099" lon="6.61193">
        <ele>641.6</ele>
        <time>2022-08-05T09:07:46Z</time>
      </trkpt>
      <trkpt lat="47.151" lon="6.61201">
        <ele>641.24</ele>
        <time>2022-08-05T09:08:08Z</time>
      </trkpt>
      <trkpt lat="47.15103" lon="6.61211">
        <ele>641.08</ele>
        <time>2022-08-05T09:08:18Z</time>
      </trkpt>
      <trkpt lat="47.15106" lon="6.61229">
        <ele>640.84</ele>
        <time>2022-08-05T09:08:34Z</time>
      </trkpt>
      <trkpt lat="47.15109" lon="6.61237">
        <ele>640.68</ele>
        <time>2022-08-05T09:08:45Z</time>
      </trkpt>
      <trkpt lat="47.15111" lon="6.61247">
        <ele>642.29</ele>
        <time>2022-08-05T09:09:04Z</time>
      </trkpt>
      <trkpt lat="47.15115" lon="6.61251">
        <ele>642.91</ele>
        <time>2022-08-05T09:09:13Z</time>
      </trkpt>
      <trkpt lat="47.1512" lon="6.61259">
        <ele>642.87</ele>
        <time>2022-08-05T09:09:17Z</time>
      </trkpt>
      <trkpt lat="47.15123" lon="6.61266">
        <ele>643.42</ele>
        <time>2022-08-05T09:09:31Z</time>
      </trkpt>
      <trkpt lat="47.1513" lon="6.61275">
        <ele>645.03</ele>
        <time>2022-08-05T09:09:45Z</time>
      </trkpt>
      <trkpt lat="47.15133" lon="6.6128">
        <ele>646.52</ele>
        <time>2022-08-05T09:09:59Z</time>
      </trkpt>
      <trkpt lat="47.15137" lon="6.61286">
        <ele>647.17</ele>
        <time>2022-08-05T09:10:19Z</time>
      </trkpt>
      <trkpt lat="47.15139" lon="6.61291">
        <ele>636.85</ele>
        <time>2022-08-05T09:10:22Z</time>
      </trkpt>
      <trkpt lat="47.15136" lon="6.61287">
        <ele>648.3</ele>
        <time>2022-08-05T09:10:23Z</time>
      </trkpt>
      <trkpt lat="47.15132" lon="6.6128">
        <ele>650.29</ele>
        <time>2022-08-05T09:10:25Z</time>
      </trkpt>
      <trkpt lat="47.15129" lon="6.61273">
        <ele>650.28</ele>
        <time>2022-08-05T09:10:36Z</time>
      </trkpt>
      <trkpt lat="47.15125" lon="6.6127">
        <ele>650.27</ele>
        <time>2022-08-05T09:10:42Z</time>
      </trkpt>
      <trkpt lat="47.15123" lon="6.61263">
        <ele>650.27</ele>
        <time>2022-08-05T09:10:44Z</time>
      </trkpt>
      <trkpt lat="47.15118" lon="6.61258">
        <ele>647.93</ele>
        <time>2022-08-05T09:10:47Z</time>
      </trkpt>
      <trkpt lat="47.15116" lon="6.61252">
        <ele>647.1</ele>
        <time>2022-08-05T09:10:54Z</time>
      </trkpt>
      <trkpt lat="47.15111" lon="6.61244">
        <ele>645.59</ele>
        <time>2022-08-05T09:11:09Z</time>
      </trkpt>
      <trkpt lat="47.1511" lon="6.61238">
        <ele>643.92</ele>
        <time>2022-08-05T09:11:16Z</time>
      </trkpt>
      <trkpt lat="47.15108" lon="6.61233">
        <ele>643.01</ele>
        <time>2022-08-05T09:11:21Z</time>
      </trkpt>
      <trkpt lat="47.15104" lon="6.61218">
        <ele>642.16</ele>
        <time>2022-08-05T09:11:36Z</time>
      </trkpt>
      <trkpt lat="47.15104" lon="6.6121">
        <ele>640.23</ele>
        <time>2022-08-05T09:11:43Z</time>
      </trkpt>
      <trkpt lat="47.151" lon="6.61202">
        <ele>639.34</ele>
        <time>2022-08-05T09:11:53Z</time>
      </trkpt>
      <trkpt lat="47.15098" lon="6.61192">
        <ele>638.57</ele>
        <time>2022-08-05T09:12:09Z</time>
      </trkpt>
      <trkpt lat="47.15103" lon="6.61189">
        <ele>638.57</ele>
        <time>2022-08-05T09:12:12Z</time>
      </trkpt>
      <trkpt lat="47.15104" lon="6.61187">
        <ele>637.77</ele>
        <time>2022-08-05T09:12:28Z</time>
      </trkpt>
      <trkpt lat="47.15104" lon="6.61188">
        <ele>634.18</ele>
        <time>2022-08-05T09:12:43Z</time>
      </trkpt>
      <trkpt lat="47.15106" lon="6.61187">
        <ele>632.92</ele>
        <time>2022-08-05T09:12:46Z</time>
      </trkpt>
      <trkpt lat="47.15105" lon="6.61187">
        <ele>630.59</ele>
        <time>2022-08-05T09:12:54Z</time>
      </trkpt>
      <trkpt lat="47.15105" lon="6.61185">
        <ele>627.24</ele>
        <time>2022-08-05T09:13:07Z</time>
      </trkpt>
      <trkpt lat="47.15107" lon="6.61185">
        <ele>623.45</ele>
        <time>2022-08-05T09:13:21Z</time>
      </trkpt>
      <trkpt lat="47.15109" lon="6.61193">
        <ele>623.41</ele>
        <time>2022-08-05T09:13:22Z</time>
      </trkpt>
      <trkpt lat="47.15122" lon="6.61193">
        <ele>621.74</ele>
        <time>2022-08-05T09:13:36Z</time>
      </trkpt>
      <trkpt lat="47.15122" lon="6.61187">
        <ele>618.8</ele>
        <time>2022-08-05T09:13:46Z</time>
      </trkpt>
      <trkpt lat="47.1512" lon="6.61181">
        <ele>615.24</ele>
        <time>2022-08-05T09:14:00Z</time>
      </trkpt>
      <trkpt lat="47.1512" lon="6.61181">
        <ele>611.93</ele>
        <time>2022-08-05T09:14:17Z</time>
      </trkpt>
      <trkpt lat="47.15132" lon="6.61174">
        <ele>608.16</ele>
        <time>2022-08-05T09:14:30Z</time>
      </trkpt>
      <trkpt lat="47.15132" lon="6.61176">
        <ele>608.17</ele>
        <time>2022-08-05T09:14:31Z</time>
      </trkpt>
      <trkpt lat="47.15132" lon="6.61176">
        <ele>605.05</ele>
        <time>2022-08-05T09:14:44Z</time>
      </trkpt>
      <trkpt lat="47.15134" lon="6.6118">
        <ele>601.77</ele>
        <time>2022-08-05T09:14:58Z</time>
      </trkpt>
      <trkpt lat="47.15134" lon="6.61179">
        <ele>600.65</ele>
        <time>2022-08-05T09:15:06Z</time>
      </trkpt>
      <trkpt lat="47.15136" lon="6.61182">
        <ele>597.45</ele>
        <time>2022-08-05T09:15:22Z</time>
      </trkpt>
      <trkpt lat="47.15138" lon="6.61185">
        <ele>597.46</ele>
        <time>2022-08-05T09:15:23Z</time>
      </trkpt>
      <trkpt lat="47.15139" lon="6.61186">
        <ele>594.03</ele>
        <time>2022-08-05T09:15:37Z</time>
      </trkpt>
      <trkpt lat="47.15142" lon="6.61185">
        <ele>590.66</ele>
        <time>2022-08-05T09:15:49Z</time>
      </trkpt>
      <trkpt lat="47.15144" lon="6.61186">
        <ele>590.46</ele>
        <time>2022-08-05T09:15:51Z</time>
      </trkpt>
      <trkpt lat="47.15145" lon="6.61189">
        <ele>590.8</ele>
        <time>2022-08-05T09:16:10Z</time>
      </trkpt>
      <trkpt lat="47.15145" lon="6.61188">
        <ele>589.23</ele>
        <time>2022-08-05T09:16:25Z</time>
      </trkpt>
      <trkpt lat="47.15147" lon="6.61187">
        <ele>588.73</ele>
        <time>2022-08-05T09:16:44Z</time>
      </trkpt>
      <trkpt lat="47.15147" lon="6.61187">
        <ele>587.35</ele>
        <time>2022-08-05T09:17:04Z</time>
      </trkpt>
      <trkpt lat="47.15146" lon="6.61189">
        <ele>587.33</ele>
        <time>2022-08-05T09:17:11Z</time>
      </trkpt>
      <trkpt lat="47.15154" lon="6.61187">
        <ele>587.5</ele>
        <time>2022-08-05T09:17:28Z</time>
      </trkpt>
      <trkpt lat="47.15157" lon="6.61187">
        <ele>587.55</ele>
        <time>2022-08-05T09:17:40Z</time>
      </trkpt>
      <trkpt lat="47.1516" lon="6.61185">
        <ele>587.55</ele>
        <time>2022-08-05T09:17:42Z</time>
      </trkpt>
      <trkpt lat="47.15162" lon="6.61185">
        <ele>587.58</ele>
        <time>2022-08-05T09:17:58Z</time>
      </trkpt>
      <trkpt lat="47.15162" lon="6.61181">
        <ele>587.6</ele>
        <time>2022-08-05T09:18:17Z</time>
      </trkpt>
      <trkpt lat="47.15161" lon="6.61174">
        <ele>587.59</ele>
        <time>2022-08-05T09:18:42Z</time>
      </trkpt>
      <trkpt lat="47.1516" lon="6.6117">
        <ele>587.59</ele>
        <time>2022-08-05T09:18:54Z</time>
      </trkpt>
      <trkpt lat="47.15159" lon="6.61162">
        <ele>583.08</ele>
        <time>2022-08-05T09:19:11Z</time>
      </trkpt>
      <trkpt lat="47.15158" lon="6.61158">
        <ele>582.2</ele>
        <time>2022-08-05T09:19:30Z</time>
      </trkpt>
      <trkpt lat="47.15157" lon="6.61152">
        <ele>582.21</ele>
        <time>2022-08-05T09:19:31Z</time>
      </trkpt>
      <trkpt lat="47.15156" lon="6.61146">
        <ele>582.27</ele>
        <time>2022-08-05T09:19:55Z</time>
      </trkpt>
      <trkpt lat="47.15154" lon="6.61141">
        <ele>581.25</ele>
        <time>2022-08-05T09:20:01Z</time>
      </trkpt>
      <trkpt lat="47.15159" lon="6.61144">
        <ele>580.38</ele>
        <time>2022-08-05T09:20:06Z</time>
      </trkpt>
      <trkpt lat="47.1517" lon="6.6115">
        <ele>576.97</ele>
        <time>2022-08-05T09:20:21Z</time>
      </trkpt>
      <trkpt lat="47.15174" lon="6.61153">
        <ele>575.24</ele>
        <time>2022-08-05T09:20:28Z</time>
      </trkpt>
      <trkpt lat="47.15188" lon="6.61164">
        <ele>573.56</ele>
        <time>2022-08-05T09:20:47Z</time>
      </trkpt>
      <trkpt lat="47.15201" lon="6.61171">
        <ele>572.8</ele>
        <time>2022-08-05T09:21:04Z</time>
      </trkpt>
      <trkpt lat="47.15205" lon="6.61167">
        <ele>572.8</ele>
        <time>2022-08-05T09:21:05Z</time>
      </trkpt>
      <trkpt lat="47.15209" lon="6.61166">
        <ele>572.82</ele>
        <time>2022-08-05T09:21:09Z</time>
      </trkpt>
      <trkpt lat="47.15213" lon="6.61165">
        <ele>572.04</ele>
        <time>2022-08-05T09:21:12Z</time>
      </trkpt>
      <trkpt lat="47.15217" lon="6.61162">
        <ele>572</ele>
        <time>2022-08-05T09:21:16Z</time>
      </trkpt>
      <trkpt lat="47.15239" lon="6.61154">
        <ele>570.18</ele>
        <time>2022-08-05T09:21:37Z</time>
      </trkpt>
      <trkpt lat="47.15253" lon="6.61142">
        <ele>567.27</ele>
        <time>2022-08-05T09:21:55Z</time>
      </trkpt>
      <trkpt lat="47.15272" lon="6.61121">
        <ele>564.59</ele>
        <time>2022-08-05T09:22:14Z</time>
      </trkpt>
      <trkpt lat="47.15282" lon="6.61114">
        <ele>563.67</ele>
        <time>2022-08-05T09:22:35Z</time>
      </trkpt>
      <trkpt lat="47.15288" lon="6.61094">
        <ele>563.58</ele>
        <time>2022-08-05T09:22:54Z</time>
      </trkpt>
      <trkpt lat="47.15293" lon="6.61086">
        <ele>561.5</ele>
        <time>2022-08-05T09:23:06Z</time>
      </trkpt>
      <trkpt lat="47.15293" lon="6.61086">
        <ele>557.14</ele>
        <time>2022-08-05T09:23:07Z</time>
      </trkpt>
      <trkpt lat="47.15293" lon="6.61086">
        <ele>562.86</ele>
        <time>2022-08-05T09:23:08Z</time>
      </trkpt>
      <trkpt lat="47.15292" lon="6.61085">
        <ele>564.55</ele>
        <time>2022-08-05T09:23:10Z</time>
      </trkpt>
      <trkpt lat="47.15292" lon="6.61084">
        <ele>566.59</ele>
        <time>2022-08-05T09:23:12Z</time>
      </trkpt>
      <trkpt lat="47.15292" lon="6.61083">
        <ele>553.96</ele>
        <time>2022-08-05T09:23:15Z</time>
      </trkpt>
      <trkpt lat="47.15292" lon="6.6108">
        <ele>565.73</ele>
        <time>2022-08-05T09:23:18Z</time>
      </trkpt>
      <trkpt lat="47.15293" lon="6.61078">
        <ele>563.15</ele>
        <time>2022-08-05T09:23:23Z</time>
      </trkpt>
      <trkpt lat="47.15294" lon="6.61078">
        <ele>563.3</ele>
        <time>2022-08-05T09:23:46Z</time>
      </trkpt>
      <trkpt lat="47.15293" lon="6.61078">
        <ele>563.29</ele>
        <time>2022-08-05T09:23:48Z</time>
      </trkpt>
      <trkpt lat="47.15287" lon="6.61083">
        <ele>563.19</ele>
        <time>2022-08-05T09:24:11Z</time>
      </trkpt>
      <trkpt lat="47.15291" lon="6.61095">
        <ele>563.08</ele>
        <time>2022-08-05T09:24:32Z</time>
      </trkpt>
      <trkpt lat="47.15293" lon="6.61098">
        <ele>562.98</ele>
        <time>2022-08-05T09:24:55Z</time>
      </trkpt>
      <trkpt lat="47.15292" lon="6.61088">
        <ele>562.87</ele>
        <time>2022-08-05T09:25:18Z</time>
      </trkpt>
      <trkpt lat="47.15294" lon="6.61093">
        <ele>562.76</ele>
        <time>2022-08-05T09:25:44Z</time>
      </trkpt>
      <trkpt lat="47.15292" lon="6.61091">
        <ele>562.7</ele>
        <time>2022-08-05T09:26:01Z</time>
      </trkpt>
      <trkpt lat="47.15285" lon="6.61094">
        <ele>562.61</ele>
        <time>2022-08-05T09:26:27Z</time>
      </trkpt>
      <trkpt lat="47.15289" lon="6.61092">
        <ele>562.51</ele>
        <time>2022-08-05T09:26:54Z</time>
      </trkpt>
      <trkpt lat="47.15302" lon="6.61072">
        <ele>560.79</ele>
        <time>2022-08-05T09:27:10Z</time>
      </trkpt>
      <trkpt lat="47.15316" lon="6.61054">
        <ele>558.1</ele>
        <time>2022-08-05T09:27:25Z</time>
      </trkpt>
      <trkpt lat="47.15316" lon="6.61053">
        <ele>558.09</ele>
        <time>2022-08-05T09:27:26Z</time>
      </trkpt>
      <trkpt lat="47.15328" lon="6.6104">
        <ele>555.38</ele>
        <time>2022-08-05T09:27:38Z</time>
      </trkpt>
      <trkpt lat="47.1533" lon="6.61039">
        <ele>555.38</ele>
        <time>2022-08-05T09:27:40Z</time>
      </trkpt>
      <trkpt lat="47.15343" lon="6.61029">
        <ele>552.61</ele>
        <time>2022-08-05T09:27:52Z</time>
      </trkpt>
      <trkpt lat="47.15349" lon="6.61026">
        <ele>549.2</ele>
        <time>2022-08-05T09:28:02Z</time>
      </trkpt>
      <trkpt lat="47.15357" lon="6.61022">
        <ele>546.36</ele>
        <time>2022-08-05T09:28:15Z</time>
      </trkpt>
      <trkpt lat="47.15361" lon="6.61019">
        <ele>545.55</ele>
        <time>2022-08-05T09:28:22Z</time>
      </trkpt>
      <trkpt lat="47.15379" lon="6.61011">
        <ele>543.21</ele>
        <time>2022-08-05T09:28:40Z</time>
      </trkpt>
      <trkpt lat="47.1538" lon="6.61006">
        <ele>539.3</ele>
        <time>2022-08-05T09:28:55Z</time>
      </trkpt>
      <trkpt lat="47.15394" lon="6.60991">
        <ele>537.68</ele>
        <time>2022-08-05T09:29:05Z</time>
      </trkpt>
      <trkpt lat="47.15397" lon="6.60988">
        <ele>534.45</ele>
        <time>2022-08-05T09:29:19Z</time>
      </trkpt>
      <trkpt lat="47.15399" lon="6.60986">
        <ele>533.45</ele>
        <time>2022-08-05T09:29:27Z</time>
      </trkpt>
      <trkpt lat="47.15401" lon="6.60985">
        <ele>531.12</ele>
        <time>2022-08-05T09:29:43Z</time>
      </trkpt>
      <trkpt lat="47.154" lon="6.60979">
        <ele>531.03</ele>
        <time>2022-08-05T09:29:49Z</time>
      </trkpt>
      <trkpt lat="47.15399" lon="6.60983">
        <ele>529.37</ele>
        <time>2022-08-05T09:29:56Z</time>
      </trkpt>
      <trkpt lat="47.15401" lon="6.60974">
        <ele>527.44</ele>
        <time>2022-08-05T09:30:05Z</time>
      </trkpt>
      <trkpt lat="47.15401" lon="6.6097">
        <ele>526.62</ele>
        <time>2022-08-05T09:30:07Z</time>
      </trkpt>
      <trkpt lat="47.15405" lon="6.60955">
        <ele>525.05</ele>
        <time>2022-08-05T09:30:27Z</time>
      </trkpt>
      <trkpt lat="47.15406" lon="6.60948">
        <ele>524.31</ele>
        <time>2022-08-05T09:30:43Z</time>
      </trkpt>
      <trkpt lat="47.15408" lon="6.60947">
        <ele>524.33</ele>
        <time>2022-08-05T09:30:46Z</time>
      </trkpt>
      <trkpt lat="47.1541" lon="6.60945">
        <ele>524.34</ele>
        <time>2022-08-05T09:30:50Z</time>
      </trkpt>
      <trkpt lat="47.15408" lon="6.60949">
        <ele>524.4</ele>
        <time>2022-08-05T09:30:58Z</time>
      </trkpt>
      <trkpt lat="47.15404" lon="6.60948">
        <ele>524.43</ele>
        <time>2022-08-05T09:31:05Z</time>
      </trkpt>
      <trkpt lat="47.15405" lon="6.60949">
        <ele>524.44</ele>
        <time>2022-08-05T09:31:07Z</time>
      </trkpt>
      <trkpt lat="47.15416" lon="6.60943">
        <ele>524.52</ele>
        <time>2022-08-05T09:31:35Z</time>
      </trkpt>
      <trkpt lat="47.15422" lon="6.60936">
        <ele>522.58</ele>
        <time>2022-08-05T09:31:42Z</time>
      </trkpt>
      <trkpt lat="47.15419" lon="6.60938">
        <ele>529</ele>
        <time>2022-08-05T09:31:45Z</time>
      </trkpt>
      <trkpt lat="47.15418" lon="6.60941">
        <ele>525.83</ele>
        <time>2022-08-05T09:31:46Z</time>
      </trkpt>
      <trkpt lat="47.15417" lon="6.60942">
        <ele>524.12</ele>
        <time>2022-08-05T09:31:58Z</time>
      </trkpt>
      <trkpt lat="47.15421" lon="6.60938">
        <ele>524.27</ele>
        <time>2022-08-05T09:32:15Z</time>
      </trkpt>
      <trkpt lat="47.15424" lon="6.60935">
        <ele>524.35</ele>
        <time>2022-08-05T09:32:33Z</time>
      </trkpt>
      <trkpt lat="47.15416" lon="6.60917">
        <ele>524.44</ele>
        <time>2022-08-05T09:32:46Z</time>
      </trkpt>
      <trkpt lat="47.15423" lon="6.60937">
        <ele>524.42</ele>
        <time>2022-08-05T09:32:51Z</time>
      </trkpt>
      <trkpt lat="47.15422" lon="6.60938">
        <ele>524.5</ele>
        <time>2022-08-05T09:33:08Z</time>
      </trkpt>
      <trkpt lat="47.15422" lon="6.60937">
        <ele>524.58</ele>
        <time>2022-08-05T09:33:27Z</time>
      </trkpt>
      <trkpt lat="47.15419" lon="6.60938">
        <ele>526.89</ele>
        <time>2022-08-05T09:33:31Z</time>
      </trkpt>
      <trkpt lat="47.15421" lon="6.60938">
        <ele>526.97</ele>
        <time>2022-08-05T09:33:47Z</time>
      </trkpt>
      <trkpt lat="47.1542" lon="6.60939">
        <ele>527.01</ele>
        <time>2022-08-05T09:33:53Z</time>
      </trkpt>
      <trkpt lat="47.1542" lon="6.60939">
        <ele>527.09</ele>
        <time>2022-08-05T09:34:02Z</time>
      </trkpt>
      <trkpt lat="47.15423" lon="6.60939">
        <ele>527.18</ele>
        <time>2022-08-05T09:34:09Z</time>
      </trkpt>
      <trkpt lat="47.15422" lon="6.60938">
        <ele>527.31</ele>
        <time>2022-08-05T09:34:27Z</time>
      </trkpt>
      <trkpt lat="47.15422" lon="6.60939">
        <ele>527.4</ele>
        <time>2022-08-05T09:34:36Z</time>
      </trkpt>
      <trkpt lat="47.15416" lon="6.60915">
        <ele>522.12</ele>
        <time>2022-08-05T09:34:50Z</time>
      </trkpt>
      <trkpt lat="47.1542" lon="6.60912">
        <ele>526.25</ele>
        <time>2022-08-05T09:34:51Z</time>
      </trkpt>
      <trkpt lat="47.15422" lon="6.60914">
        <ele>527.62</ele>
        <time>2022-08-05T09:34:53Z</time>
      </trkpt>
      <trkpt lat="47.15425" lon="6.60913">
        <ele>527.66</ele>
        <time>2022-08-05T09:34:56Z</time>
      </trkpt>
      <trkpt lat="47.15427" lon="6.60912">
        <ele>527.96</ele>
        <time>2022-08-05T09:35:18Z</time>
      </trkpt>
      <trkpt lat="47.1543" lon="6.60911">
        <ele>528.42</ele>
        <time>2022-08-05T09:35:44Z</time>
      </trkpt>
      <trkpt lat="47.15433" lon="6.6091">
        <ele>528.67</ele>
        <time>2022-08-05T09:35:57Z</time>
      </trkpt>
      <trkpt lat="47.15438" lon="6.60908">
        <ele>529</ele>
        <time>2022-08-05T09:36:19Z</time>
      </trkpt>
      <trkpt lat="47.15445" lon="6.60909">
        <ele>529.07</ele>
        <time>2022-08-05T09:36:25Z</time>
      </trkpt>
      <trkpt lat="47.1545" lon="6.60907">
        <ele>531.03</ele>
        <time>2022-08-05T09:36:41Z</time>
      </trkpt>
      <trkpt lat="47.15454" lon="6.60906">
        <ele>531.08</ele>
        <time>2022-08-05T09:36:46Z</time>
      </trkpt>
      <trkpt lat="47.15458" lon="6.60903">
        <ele>531.12</ele>
        <time>2022-08-05T09:36:51Z</time>
      </trkpt>
      <trkpt lat="47.15473" lon="6.60898">
        <ele>532.14</ele>
        <time>2022-08-05T09:37:08Z</time>
      </trkpt>
      <trkpt lat="47.15484" lon="6.60894">
        <ele>532.19</ele>
        <time>2022-08-05T09:37:22Z</time>
      </trkpt>
      <trkpt lat="47.15488" lon="6.60892">
        <ele>532.22</ele>
        <time>2022-08-05T09:37:38Z</time>
      </trkpt>
      <trkpt lat="47.15494" lon="6.60886">
        <ele>532.16</ele>
        <time>2022-08-05T09:37:53Z</time>
      </trkpt>
      <trkpt lat="47.15508" lon="6.60881">
        <ele>532.08</ele>
        <time>2022-08-05T09:38:05Z</time>
      </trkpt>
      <trkpt lat="47.15512" lon="6.6088">
        <ele>532.07</ele>
        <time>2022-08-05T09:38:08Z</time>
      </trkpt>
      <trkpt lat="47.15524" lon="6.60874">
        <ele>531.94</ele>
        <time>2022-08-05T09:38:24Z</time>
      </trkpt>
      <trkpt lat="47.15526" lon="6.60872">
        <ele>529.52</ele>
        <time>2022-08-05T09:38:32Z</time>
      </trkpt>
      <trkpt lat="47.15532" lon="6.60862">
        <ele>526.88</ele>
        <time>2022-08-05T09:38:50Z</time>
      </trkpt>
      <trkpt lat="47.15542" lon="6.60861">
        <ele>523.9</ele>
        <time>2022-08-05T09:39:11Z</time>
      </trkpt>
      <trkpt lat="47.15546" lon="6.60862">
        <ele>523.84</ele>
        <time>2022-08-05T09:39:22Z</time>
      </trkpt>
      <trkpt lat="47.15548" lon="6.6086">
        <ele>522.89</ele>
        <time>2022-08-05T09:39:46Z</time>
      </trkpt>
      <trkpt lat="47.15544" lon="6.6086">
        <ele>522.72</ele>
        <time>2022-08-05T09:40:03Z</time>
      </trkpt>
      <trkpt lat="47.15545" lon="6.60864">
        <ele>522.38</ele>
        <time>2022-08-05T09:40:31Z</time>
      </trkpt>
      <trkpt lat="47.1554" lon="6.60855">
        <ele>522.07</ele>
        <time>2022-08-05T09:40:57Z</time>
      </trkpt>
      <trkpt lat="47.15548" lon="6.60848">
        <ele>521.76</ele>
        <time>2022-08-05T09:41:22Z</time>
      </trkpt>
      <trkpt lat="47.15542" lon="6.60854">
        <ele>521.47</ele>
        <time>2022-08-05T09:41:44Z</time>
      </trkpt>
      <trkpt lat="47.15546" lon="6.6086">
        <ele>521.12</ele>
        <time>2022-08-05T09:42:09Z</time>
      </trkpt>
      <trkpt lat="47.15545" lon="6.60858">
        <ele>520.95</ele>
        <time>2022-08-05T09:42:23Z</time>
      </trkpt>
      <trkpt lat="47.15556" lon="6.60848">
        <ele>519.81</ele>
        <time>2022-08-05T09:42:42Z</time>
      </trkpt>
      <trkpt lat="47.15566" lon="6.60834">
        <ele>518.75</ele>
        <time>2022-08-05T09:42:57Z</time>
      </trkpt>
      <trkpt lat="47.1557" lon="6.6083">
        <ele>518.69</ele>
        <time>2022-08-05T09:43:03Z</time>
      </trkpt>
      <trkpt lat="47.15573" lon="6.60833">
        <ele>518.41</ele>
        <time>2022-08-05T09:43:25Z</time>
      </trkpt>
      <trkpt lat="47.15571" lon="6.60833">
        <ele>518.12</ele>
        <time>2022-08-05T09:43:48Z</time>
      </trkpt>
      <trkpt lat="47.15574" lon="6.60832">
        <ele>518.04</ele>
        <time>2022-08-05T09:43:53Z</time>
      </trkpt>
      <trkpt lat="47.15586" lon="6.60824">
        <ele>517.89</ele>
        <time>2022-08-05T09:44:06Z</time>
      </trkpt>
      <trkpt lat="47.15598" lon="6.60823">
        <ele>517.71</ele>
        <time>2022-08-05T09:44:21Z</time>
      </trkpt>
      <trkpt lat="47.15624" lon="6.60817">
        <ele>517.51</ele>
        <time>2022-08-05T09:44:44Z</time>
      </trkpt>
      <trkpt lat="47.15642" lon="6.6079">
        <ele>517.3</ele>
        <time>2022-08-05T09:45:04Z</time>
      </trkpt>
      <trkpt lat="47.15653" lon="6.60773">
        <ele>517.13</ele>
        <time>2022-08-05T09:45:16Z</time>
      </trkpt>
      <trkpt lat="47.15661" lon="6.60755">
        <ele>519.25</ele>
        <time>2022-08-05T09:45:27Z</time>
      </trkpt>
      <trkpt lat="47.15679" lon="6.60739">
        <ele>518.98</ele>
        <time>2022-08-05T09:45:45Z</time>
      </trkpt>
      <trkpt lat="47.15676" lon="6.60745">
        <ele>518.65</ele>
        <time>2022-08-05T09:46:03Z</time>
      </trkpt>
      <trkpt lat="47.15678" lon="6.60738">
        <ele>518.57</ele>
        <time>2022-08-05T09:46:08Z</time>
      </trkpt>
      <trkpt lat="47.15684" lon="6.60724">
        <ele>519.21</ele>
        <time>2022-08-05T09:46:17Z</time>
      </trkpt>
      <trkpt lat="47.15695" lon="6.60717">
        <ele>518.97</ele>
        <time>2022-08-05T09:46:29Z</time>
      </trkpt>
      <trkpt lat="47.15697" lon="6.60717">
        <ele>518.95</ele>
        <time>2022-08-05T09:46:30Z</time>
      </trkpt>
      <trkpt lat="47.15702" lon="6.60714">
        <ele>518.87</ele>
        <time>2022-08-05T09:46:34Z</time>
      </trkpt>
      <trkpt lat="47.15713" lon="6.60708">
        <ele>518.66</ele>
        <time>2022-08-05T09:46:45Z</time>
      </trkpt>
      <trkpt lat="47.15722" lon="6.60697">
        <ele>518.47</ele>
        <time>2022-08-05T09:46:57Z</time>
      </trkpt>
      <trkpt lat="47.15729" lon="6.60692">
        <ele>518.29</ele>
        <time>2022-08-05T09:47:10Z</time>
      </trkpt>
      <trkpt lat="47.15731" lon="6.60697">
        <ele>518.01</ele>
        <time>2022-08-05T09:47:31Z</time>
      </trkpt>
      <trkpt lat="47.1573" lon="6.607">
        <ele>517.77</ele>
        <time>2022-08-05T09:47:49Z</time>
      </trkpt>
      <trkpt lat="47.15724" lon="6.607">
        <ele>517.54</ele>
        <time>2022-08-05T09:48:08Z</time>
      </trkpt>
      <trkpt lat="47.15723" lon="6.60699">
        <ele>517.33</ele>
        <time>2022-08-05T09:48:25Z</time>
      </trkpt>
      <trkpt lat="47.15723" lon="6.60701">
        <ele>516.95</ele>
        <time>2022-08-05T09:48:55Z</time>
      </trkpt>
      <trkpt lat="47.1573" lon="6.60703">
        <ele>516.83</ele>
        <time>2022-08-05T09:49:04Z</time>
      </trkpt>
      <trkpt lat="47.15733" lon="6.60705">
        <ele>516.78</ele>
        <time>2022-08-05T09:49:08Z</time>
      </trkpt>
      <trkpt lat="47.15741" lon="6.60703">
        <ele>516.62</ele>
        <time>2022-08-05T09:49:23Z</time>
      </trkpt>
      <trkpt lat="47.15734" lon="6.60694">
        <ele>516.28</ele>
        <time>2022-08-05T09:49:53Z</time>
      </trkpt>
      <trkpt lat="47.1576" lon="6.60692">
        <ele>516.08</ele>
        <time>2022-08-05T09:50:15Z</time>
      </trkpt>
      <trkpt lat="47.15763" lon="6.60696">
        <ele>515.95</ele>
        <time>2022-08-05T09:50:49Z</time>
      </trkpt>
      <trkpt lat="47.15758" lon="6.607">
        <ele>515.77</ele>
        <time>2022-08-05T09:51:31Z</time>
      </trkpt>
      <trkpt lat="47.15759" lon="6.60697">
        <ele>515.66</ele>
        <time>2022-08-05T09:52:00Z</time>
      </trkpt>
      <trkpt lat="47.15753" lon="6.60698">
        <ele>515.47</ele>
        <time>2022-08-05T09:52:47Z</time>
      </trkpt>
      <trkpt lat="47.15756" lon="6.60701">
        <ele>515.39</ele>
        <time>2022-08-05T09:53:17Z</time>
      </trkpt>
      <trkpt lat="47.15756" lon="6.607">
        <ele>515.36</ele>
        <time>2022-08-05T09:53:45Z</time>
      </trkpt>
      <trkpt lat="47.1575" lon="6.60699">
        <ele>515.35</ele>
        <time>2022-08-05T09:54:10Z</time>
      </trkpt>
      <trkpt lat="47.15749" lon="6.60698">
        <ele>515.36</ele>
        <time>2022-08-05T09:54:11Z</time>
      </trkpt>
      <trkpt lat="47.15752" lon="6.60699">
        <ele>515.35</ele>
        <time>2022-08-05T09:54:22Z</time>
      </trkpt>
      <trkpt lat="47.15753" lon="6.60697">
        <ele>515.34</ele>
        <time>2022-08-05T09:54:30Z</time>
      </trkpt>
      <trkpt lat="47.15754" lon="6.60696">
        <ele>515.34</ele>
        <time>2022-08-05T09:54:37Z</time>
      </trkpt>
      <trkpt lat="47.15755" lon="6.60697">
        <ele>515.34</ele>
        <time>2022-08-05T09:54:41Z</time>
      </trkpt>
      <trkpt lat="47.15757" lon="6.60697">
        <ele>515.33</ele>
        <time>2022-08-05T09:54:50Z</time>
      </trkpt>
      <trkpt lat="47.15755" lon="6.60696">
        <ele>515.29</ele>
        <time>2022-08-05T09:55:18Z</time>
      </trkpt>
      <trkpt lat="47.15753" lon="6.60693">
        <ele>515.27</ele>
        <time>2022-08-05T09:55:51Z</time>
      </trkpt>
      <trkpt lat="47.15756" lon="6.60695">
        <ele>515.26</ele>
        <time>2022-08-05T09:56:21Z</time>
      </trkpt>
      <trkpt lat="47.15764" lon="6.60695">
        <ele>515.28</ele>
        <time>2022-08-05T09:56:51Z</time>
      </trkpt>
      <trkpt lat="47.1577" lon="6.60692">
        <ele>515.31</ele>
        <time>2022-08-05T09:57:15Z</time>
      </trkpt>
      <trkpt lat="47.15769" lon="6.60694">
        <ele>515.33</ele>
        <time>2022-08-05T09:57:21Z</time>
      </trkpt>
      <trkpt lat="47.15758" lon="6.60702">
        <ele>515.33</ele>
        <time>2022-08-05T09:58:07Z</time>
      </trkpt>
      <trkpt lat="47.15752" lon="6.60706">
        <ele>515.25</ele>
        <time>2022-08-05T09:58:39Z</time>
      </trkpt>
      <trkpt lat="47.15752" lon="6.60705">
        <ele>515.17</ele>
        <time>2022-08-05T09:59:08Z</time>
      </trkpt>
      <trkpt lat="47.15756" lon="6.60702">
        <ele>515.06</ele>
        <time>2022-08-05T09:59:36Z</time>
      </trkpt>
      <trkpt lat="47.15755" lon="6.60694">
        <ele>514.94</ele>
        <time>2022-08-05T10:00:08Z</time>
      </trkpt>
      <trkpt lat="47.15749" lon="6.60701">
        <ele>514.83</ele>
        <time>2022-08-05T10:00:40Z</time>
      </trkpt>
      <trkpt lat="47.15755" lon="6.60706">
        <ele>514.66</ele>
        <time>2022-08-05T10:01:12Z</time>
      </trkpt>
      <trkpt lat="47.15748" lon="6.60705">
        <ele>514.45</ele>
        <time>2022-08-05T10:01:42Z</time>
      </trkpt>
      <trkpt lat="47.15748" lon="6.60705">
        <ele>514.39</ele>
        <time>2022-08-05T10:01:50Z</time>
      </trkpt>
      <trkpt lat="47.15752" lon="6.60704">
        <ele>514.36</ele>
        <time>2022-08-05T10:01:54Z</time>
      </trkpt>
      <trkpt lat="47.15751" lon="6.60702">
        <ele>515.31</ele>
        <time>2022-08-05T10:01:56Z</time>
      </trkpt>
      <trkpt lat="47.15749" lon="6.60699">
        <ele>513.03</ele>
        <time>2022-08-05T10:01:57Z</time>
      </trkpt>
      <trkpt lat="47.15747" lon="6.60697">
        <ele>515.66</ele>
        <time>2022-08-05T10:02:00Z</time>
      </trkpt>
      <trkpt lat="47.15743" lon="6.60694">
        <ele>515.46</ele>
        <time>2022-08-05T10:02:23Z</time>
      </trkpt>
      <trkpt lat="47.15739" lon="6.60691">
        <ele>515.31</ele>
        <time>2022-08-05T10:02:39Z</time>
      </trkpt>
      <trkpt lat="47.15737" lon="6.60689">
        <ele>515.14</ele>
        <time>2022-08-05T10:02:57Z</time>
      </trkpt>
      <trkpt lat="47.15738" lon="6.60689">
        <ele>514.98</ele>
        <time>2022-08-05T10:03:15Z</time>
      </trkpt>
      <trkpt lat="47.15741" lon="6.60685">
        <ele>514.81</ele>
        <time>2022-08-05T10:03:35Z</time>
      </trkpt>
      <trkpt lat="47.15745" lon="6.60684">
        <ele>514.67</ele>
        <time>2022-08-05T10:03:53Z</time>
      </trkpt>
      <trkpt lat="47.15744" lon="6.60674">
        <ele>514.6</ele>
        <time>2022-08-05T10:04:06Z</time>
      </trkpt>
      <trkpt lat="47.15745" lon="6.60657">
        <ele>516.05</ele>
        <time>2022-08-05T10:04:25Z</time>
      </trkpt>
      <trkpt lat="47.1575" lon="6.60655">
        <ele>515.93</ele>
        <time>2022-08-05T10:04:40Z</time>
      </trkpt>
      <trkpt lat="47.15758" lon="6.60656">
        <ele>515.67</ele>
        <time>2022-08-05T10:05:10Z</time>
      </trkpt>
      <trkpt lat="47.15767" lon="6.60661">
        <ele>516.37</ele>
        <time>2022-08-05T10:05:25Z</time>
      </trkpt>
      <trkpt lat="47.15778" lon="6.60676">
        <ele>516.16</ele>
        <time>2022-08-05T10:05:44Z</time>
      </trkpt>
      <trkpt lat="47.15786" lon="6.60673">
        <ele>516.26</ele>
        <time>2022-08-05T10:06:42Z</time>
      </trkpt>
      <trkpt lat="47.15786" lon="6.6064">
        <ele>514.91</ele>
        <time>2022-08-05T10:08:46Z</time>
      </trkpt>
      <trkpt lat="47.15772" lon="6.6066">
        <ele>513.13</ele>
        <time>2022-08-05T10:11:44Z</time>
      </trkpt>
      <trkpt lat="47.15776" lon="6.60646">
        <ele>513.04</ele>
        <time>2022-08-05T10:11:57Z</time>
      </trkpt>
      <trkpt lat="47.15778" lon="6.60624">
        <ele>512.97</ele>
        <time>2022-08-05T10:12:12Z</time>
      </trkpt>
      <trkpt lat="47.1578" lon="6.60619">
        <ele>512.9</ele>
        <time>2022-08-05T10:12:28Z</time>
      </trkpt>
      <trkpt lat="47.15781" lon="6.60622">
        <ele>512.85</ele>
        <time>2022-08-05T10:12:53Z</time>
      </trkpt>
      <trkpt lat="47.15786" lon="6.60622">
        <ele>512.75</ele>
        <time>2022-08-05T10:13:23Z</time>
      </trkpt>
      <trkpt lat="47.15786" lon="6.60619">
        <ele>512.67</ele>
        <time>2022-08-05T10:13:48Z</time>
      </trkpt>
      <trkpt lat="47.15779" lon="6.60624">
        <ele>512.62</ele>
        <time>2022-08-05T10:14:06Z</time>
      </trkpt>
      <trkpt lat="47.15776" lon="6.60623">
        <ele>512.57</ele>
        <time>2022-08-05T10:14:11Z</time>
      </trkpt>
      <trkpt lat="47.15774" lon="6.60614">
        <ele>512.56</ele>
        <time>2022-08-05T10:14:25Z</time>
      </trkpt>
      <trkpt lat="47.15776" lon="6.60609">
        <ele>512.46</ele>
        <time>2022-08-05T10:14:52Z</time>
      </trkpt>
      <trkpt lat="47.15771" lon="6.60604">
        <ele>512.36</ele>
        <time>2022-08-05T10:15:24Z</time>
      </trkpt>
      <trkpt lat="47.15766" lon="6.60607">
        <ele>512.32</ele>
        <time>2022-08-05T10:15:42Z</time>
      </trkpt>
      <trkpt lat="47.15768" lon="6.60608">
        <ele>512.28</ele>
        <time>2022-08-05T10:16:06Z</time>
      </trkpt>
      <trkpt lat="47.15773" lon="6.60603">
        <ele>512.29</ele>
        <time>2022-08-05T10:16:20Z</time>
      </trkpt>
      <trkpt lat="47.15772" lon="6.60603">
        <ele>512.24</ele>
        <time>2022-08-05T10:16:43Z</time>
      </trkpt>
      <trkpt lat="47.15773" lon="6.60605">
        <ele>512.17</ele>
        <time>2022-08-05T10:17:09Z</time>
      </trkpt>
      <trkpt lat="47.15768" lon="6.60605">
        <ele>512.16</ele>
        <time>2022-08-05T10:17:34Z</time>
      </trkpt>
      <trkpt lat="47.15766" lon="6.60603">
        <ele>512.02</ele>
        <time>2022-08-05T10:18:07Z</time>
      </trkpt>
      <trkpt lat="47.15766" lon="6.60607">
        <ele>511.91</ele>
        <time>2022-08-05T10:18:33Z</time>
      </trkpt>
      <trkpt lat="47.15766" lon="6.60601">
        <ele>511.82</ele>
        <time>2022-08-05T10:18:56Z</time>
      </trkpt>
      <trkpt lat="47.15765" lon="6.60603">
        <ele>511.72</ele>
        <time>2022-08-05T10:19:15Z</time>
      </trkpt>
      <trkpt lat="47.15766" lon="6.60601">
        <ele>511.66</ele>
        <time>2022-08-05T10:19:38Z</time>
      </trkpt>
      <trkpt lat="47.15766" lon="6.60602">
        <ele>509.23</ele>
        <time>2022-08-05T10:19:47Z</time>
      </trkpt>
      <trkpt lat="47.15765" lon="6.60602">
        <ele>506.18</ele>
        <time>2022-08-05T10:19:55Z</time>
      </trkpt>
      <trkpt lat="47.15765" lon="6.60603">
        <ele>506.18</ele>
        <time>2022-08-05T10:19:56Z</time>
      </trkpt>
      <trkpt lat="47.15765" lon="6.60603">
        <ele>509.18</ele>
        <time>2022-08-05T10:20:00Z</time>
      </trkpt>
      <trkpt lat="47.15765" lon="6.60604">
        <ele>512</ele>
        <time>2022-08-05T10:20:06Z</time>
      </trkpt>
      <trkpt lat="47.15764" lon="6.60604">
        <ele>508.43</ele>
        <time>2022-08-05T10:20:08Z</time>
      </trkpt>
      <trkpt lat="47.15764" lon="6.60605">
        <ele>508.36</ele>
        <time>2022-08-05T10:20:09Z</time>
      </trkpt>
      <trkpt lat="47.15764" lon="6.60605">
        <ele>513.99</ele>
        <time>2022-08-05T10:20:10Z</time>
      </trkpt>
      <trkpt lat="47.15764" lon="6.60605">
        <ele>515.03</ele>
        <time>2022-08-05T10:20:12Z</time>
      </trkpt>
      <trkpt lat="47.15763" lon="6.60606">
        <ele>515.86</ele>
        <time>2022-08-05T10:20:29Z</time>
      </trkpt>
      <trkpt lat="47.15761" lon="6.60609">
        <ele>516.51</ele>
        <time>2022-08-05T10:20:48Z</time>
      </trkpt>
      <trkpt lat="47.15758" lon="6.6061">
        <ele>517.04</ele>
        <time>2022-08-05T10:21:11Z</time>
      </trkpt>
      <trkpt lat="47.15759" lon="6.60611">
        <ele>518.42</ele>
        <time>2022-08-05T10:21:40Z</time>
      </trkpt>
      <trkpt lat="47.1576" lon="6.60611">
        <ele>520.43</ele>
        <time>2022-08-05T10:22:09Z</time>
      </trkpt>
      <trkpt lat="47.15753" lon="6.60607">
        <ele>522.59</ele>
        <time>2022-08-05T10:22:34Z</time>
      </trkpt>
      <trkpt lat="47.15752" lon="6.60598">
        <ele>518.21</ele>
        <time>2022-08-05T10:22:49Z</time>
      </trkpt>
      <trkpt lat="47.15751" lon="6.60597">
        <ele>518.21</ele>
        <time>2022-08-05T10:22:50Z</time>
      </trkpt>
      <trkpt lat="47.15751" lon="6.60595">
        <ele>520.87</ele>
        <time>2022-08-05T10:22:52Z</time>
      </trkpt>
      <trkpt lat="47.15754" lon="6.60591">
        <ele>517.14</ele>
        <time>2022-08-05T10:23:00Z</time>
      </trkpt>
      <trkpt lat="47.15755" lon="6.60591">
        <ele>512.77</ele>
        <time>2022-08-05T10:23:01Z</time>
      </trkpt>
      <trkpt lat="47.15755" lon="6.60591">
        <ele>509.33</ele>
        <time>2022-08-05T10:23:03Z</time>
      </trkpt>
      <trkpt lat="47.15755" lon="6.60591">
        <ele>509.29</ele>
        <time>2022-08-05T10:23:04Z</time>
      </trkpt>
      <trkpt lat="47.15755" lon="6.60591">
        <ele>508.53</ele>
        <time>2022-08-05T10:23:32Z</time>
      </trkpt>
      <trkpt lat="47.15756" lon="6.60591">
        <ele>508.49</ele>
        <time>2022-08-05T10:24:01Z</time>
      </trkpt>
      <trkpt lat="47.15753" lon="6.60593">
        <ele>508.44</ele>
        <time>2022-08-05T10:24:30Z</time>
      </trkpt>
      <trkpt lat="47.15745" lon="6.60582">
        <ele>507.57</ele>
        <time>2022-08-05T10:24:48Z</time>
      </trkpt>
      <trkpt lat="47.1574" lon="6.60569">
        <ele>507.55</ele>
        <time>2022-08-05T10:24:59Z</time>
      </trkpt>
      <trkpt lat="47.15736" lon="6.60544">
        <ele>503.7</ele>
        <time>2022-08-05T10:25:17Z</time>
      </trkpt>
      <trkpt lat="47.15735" lon="6.60543">
        <ele>507.34</ele>
        <time>2022-08-05T10:25:18Z</time>
      </trkpt>
      <trkpt lat="47.15735" lon="6.6054">
        <ele>508.32</ele>
        <time>2022-08-05T10:25:20Z</time>
      </trkpt>
      <trkpt lat="47.15734" lon="6.60523">
        <ele>508.28</ele>
        <time>2022-08-05T10:25:29Z</time>
      </trkpt>
      <trkpt lat="47.15734" lon="6.60505">
        <ele>508.24</ele>
        <time>2022-08-05T10:25:49Z</time>
      </trkpt>
      <trkpt lat="47.15735" lon="6.60501">
        <ele>508.18</ele>
        <time>2022-08-05T10:26:01Z</time>
      </trkpt>
      <trkpt lat="47.15735" lon="6.60502">
        <ele>508.07</ele>
        <time>2022-08-05T10:26:21Z</time>
      </trkpt>
      <trkpt lat="47.15733" lon="6.60502">
        <ele>511.55</ele>
        <time>2022-08-05T10:26:33Z</time>
      </trkpt>
      <trkpt lat="47.15733" lon="6.60503">
        <ele>511.54</ele>
        <time>2022-08-05T10:26:34Z</time>
      </trkpt>
      <trkpt lat="47.15732" lon="6.60503">
        <ele>508.48</ele>
        <time>2022-08-05T10:26:36Z</time>
      </trkpt>
      <trkpt lat="47.15732" lon="6.60503">
        <ele>508.49</ele>
        <time>2022-08-05T10:26:37Z</time>
      </trkpt>
      <trkpt lat="47.15732" lon="6.605">
        <ele>508.4</ele>
        <time>2022-08-05T10:26:46Z</time>
      </trkpt>
      <trkpt lat="47.15732" lon="6.60498">
        <ele>507.54</ele>
        <time>2022-08-05T10:26:54Z</time>
      </trkpt>
      <trkpt lat="47.15731" lon="6.60504">
        <ele>507.49</ele>
        <time>2022-08-05T10:27:20Z</time>
      </trkpt>
      <trkpt lat="47.15731" lon="6.60498">
        <ele>507.38</ele>
        <time>2022-08-05T10:27:48Z</time>
      </trkpt>
      <trkpt lat="47.15732" lon="6.60497">
        <ele>483.62</ele>
        <time>2022-08-05T10:28:00Z</time>
      </trkpt>
      <trkpt lat="47.15683" lon="6.60472">
        <ele>507.22</ele>
        <time>2022-08-05T10:29:59Z</time>
      </trkpt>
      <trkpt lat="47.15711" lon="6.60485">
        <ele>448.8</ele>
        <time>2022-08-05T10:30:00Z</time>
      </trkpt>
      <trkpt lat="47.15751" lon="6.60493">
        <ele>448.91</ele>
        <time>2022-08-05T10:30:12Z</time>
      </trkpt>
      <trkpt lat="47.1575" lon="6.60494">
        <ele>442.47</ele>
        <time>2022-08-05T10:30:14Z</time>
      </trkpt>
      <trkpt lat="47.15749" lon="6.60497">
        <ele>451.1</ele>
        <time>2022-08-05T10:30:15Z</time>
      </trkpt>
      <trkpt lat="47.15749" lon="6.60497">
        <ele>451.1</ele>
        <time>2022-08-05T10:30:16Z</time>
      </trkpt>
      <trkpt lat="47.15751" lon="6.6049">
        <ele>448.98</ele>
        <time>2022-08-05T10:30:24Z</time>
      </trkpt>
      <trkpt lat="47.15756" lon="6.60497">
        <ele>449.87</ele>
        <time>2022-08-05T10:30:47Z</time>
      </trkpt>
      <trkpt lat="47.1576" lon="6.60492">
        <ele>451.14</ele>
        <time>2022-08-05T10:31:15Z</time>
      </trkpt>
      <trkpt lat="47.15758" lon="6.60493">
        <ele>452.26</ele>
        <time>2022-08-05T10:31:41Z</time>
      </trkpt>
      <trkpt lat="47.15758" lon="6.60496">
        <ele>453.31</ele>
        <time>2022-08-05T10:32:07Z</time>
      </trkpt>
      <trkpt lat="47.15748" lon="6.60494">
        <ele>454.04</ele>
        <time>2022-08-05T10:32:27Z</time>
      </trkpt>
      <trkpt lat="47.15737" lon="6.60483">
        <ele>454.74</ele>
        <time>2022-08-05T10:32:44Z</time>
      </trkpt>
      <trkpt lat="47.15732" lon="6.60468">
        <ele>455.36</ele>
        <time>2022-08-05T10:33:01Z</time>
      </trkpt>
      <trkpt lat="47.15736" lon="6.6048">
        <ele>456.16</ele>
        <time>2022-08-05T10:33:23Z</time>
      </trkpt>
      <trkpt lat="47.15737" lon="6.60484">
        <ele>456.27</ele>
        <time>2022-08-05T10:33:26Z</time>
      </trkpt>
      <trkpt lat="47.1574" lon="6.605">
        <ele>457.01</ele>
        <time>2022-08-05T10:33:47Z</time>
      </trkpt>
      <trkpt lat="47.15736" lon="6.60479">
        <ele>459.91</ele>
        <time>2022-08-05T10:34:05Z</time>
      </trkpt>
      <trkpt lat="47.15735" lon="6.60478">
        <ele>459.92</ele>
        <time>2022-08-05T10:34:06Z</time>
      </trkpt>
      <trkpt lat="47.15719" lon="6.60455">
        <ele>462.28</ele>
        <time>2022-08-05T10:34:29Z</time>
      </trkpt>
      <trkpt lat="47.15708" lon="6.60435">
        <ele>464.51</ele>
        <time>2022-08-05T10:34:50Z</time>
      </trkpt>
      <trkpt lat="47.15699" lon="6.60427">
        <ele>465.75</ele>
        <time>2022-08-05T10:35:05Z</time>
      </trkpt>
      <trkpt lat="47.15686" lon="6.60426">
        <ele>466.91</ele>
        <time>2022-08-05T10:35:21Z</time>
      </trkpt>
      <trkpt lat="47.15682" lon="6.60425">
        <ele>467.34</ele>
        <time>2022-08-05T10:35:41Z</time>
      </trkpt>
      <trkpt lat="47.15664" lon="6.60411">
        <ele>468.6</ele>
        <time>2022-08-05T10:36:02Z</time>
      </trkpt>
      <trkpt lat="47.15648" lon="6.6039">
        <ele>471.68</ele>
        <time>2022-08-05T10:36:23Z</time>
      </trkpt>
      <trkpt lat="47.15629" lon="6.6038">
        <ele>473.71</ele>
        <time>2022-08-05T10:36:47Z</time>
      </trkpt>
      <trkpt lat="47.15613" lon="6.60375">
        <ele>475.98</ele>
        <time>2022-08-05T10:37:08Z</time>
      </trkpt>
      <trkpt lat="47.15612" lon="6.60375">
        <ele>476.89</ele>
        <time>2022-08-05T10:37:10Z</time>
      </trkpt>
      <trkpt lat="47.156" lon="6.60363">
        <ele>478.81</ele>
        <time>2022-08-05T10:37:27Z</time>
      </trkpt>
      <trkpt lat="47.15583" lon="6.60349">
        <ele>481.58</ele>
        <time>2022-08-05T10:37:48Z</time>
      </trkpt>
      <trkpt lat="47.15565" lon="6.60344">
        <ele>483.77</ele>
        <time>2022-08-05T10:38:08Z</time>
      </trkpt>
      <trkpt lat="47.15549" lon="6.60326">
        <ele>485.51</ele>
        <time>2022-08-05T10:38:28Z</time>
      </trkpt>
      <trkpt lat="47.15539" lon="6.60321">
        <ele>488.24</ele>
        <time>2022-08-05T10:38:48Z</time>
      </trkpt>
      <trkpt lat="47.15533" lon="6.60311">
        <ele>490.18</ele>
        <time>2022-08-05T10:39:11Z</time>
      </trkpt>
      <trkpt lat="47.1553" lon="6.60307">
        <ele>491.1</ele>
        <time>2022-08-05T10:39:18Z</time>
      </trkpt>
      <trkpt lat="47.15523" lon="6.60302">
        <ele>492.83</ele>
        <time>2022-08-05T10:39:29Z</time>
      </trkpt>
      <trkpt lat="47.15514" lon="6.6029">
        <ele>493.17</ele>
        <time>2022-08-05T10:39:54Z</time>
      </trkpt>
      <trkpt lat="47.15504" lon="6.60276">
        <ele>496.77</ele>
        <time>2022-08-05T10:40:10Z</time>
      </trkpt>
      <trkpt lat="47.15496" lon="6.60262">
        <ele>500.55</ele>
        <time>2022-08-05T10:40:30Z</time>
      </trkpt>
      <trkpt lat="47.15484" lon="6.60244">
        <ele>504.06</ele>
        <time>2022-08-05T10:40:49Z</time>
      </trkpt>
      <trkpt lat="47.15476" lon="6.60232">
        <ele>507.73</ele>
        <time>2022-08-05T10:41:07Z</time>
      </trkpt>
      <trkpt lat="47.15474" lon="6.60229">
        <ele>508.91</ele>
        <time>2022-08-05T10:41:13Z</time>
      </trkpt>
      <trkpt lat="47.15468" lon="6.60221">
        <ele>511.82</ele>
        <time>2022-08-05T10:41:33Z</time>
      </trkpt>
      <trkpt lat="47.15465" lon="6.6021">
        <ele>515.55</ele>
        <time>2022-08-05T10:41:48Z</time>
      </trkpt>
      <trkpt lat="47.15465" lon="6.60192">
        <ele>519.05</ele>
        <time>2022-08-05T10:42:11Z</time>
      </trkpt>
      <trkpt lat="47.15455" lon="6.60185">
        <ele>520.61</ele>
        <time>2022-08-05T10:42:23Z</time>
      </trkpt>
      <trkpt lat="47.15451" lon="6.60187">
        <ele>517.26</ele>
        <time>2022-08-05T10:42:33Z</time>
      </trkpt>
      <trkpt lat="47.15451" lon="6.60188">
        <ele>517.27</ele>
        <time>2022-08-05T10:42:34Z</time>
      </trkpt>
      <trkpt lat="47.1545" lon="6.60187">
        <ele>526.04</ele>
        <time>2022-08-05T10:42:36Z</time>
      </trkpt>
      <trkpt lat="47.1545" lon="6.60187">
        <ele>523.78</ele>
        <time>2022-08-05T10:42:37Z</time>
      </trkpt>
      <trkpt lat="47.15449" lon="6.60187">
        <ele>522.57</ele>
        <time>2022-08-05T10:42:39Z</time>
      </trkpt>
      <trkpt lat="47.15449" lon="6.60187">
        <ele>515.28</ele>
        <time>2022-08-05T10:42:41Z</time>
      </trkpt>
      <trkpt lat="47.15449" lon="6.60187">
        <ele>524.44</ele>
        <time>2022-08-05T10:42:42Z</time>
      </trkpt>
      <trkpt lat="47.15449" lon="6.60187">
        <ele>524.45</ele>
        <time>2022-08-05T10:42:43Z</time>
      </trkpt>
      <trkpt lat="47.15447" lon="6.60188">
        <ele>521.06</ele>
        <time>2022-08-05T10:42:46Z</time>
      </trkpt>
      <trkpt lat="47.15447" lon="6.60189">
        <ele>521.02</ele>
        <time>2022-08-05T10:42:47Z</time>
      </trkpt>
      <trkpt lat="47.15442" lon="6.6018">
        <ele>524.06</ele>
        <time>2022-08-05T10:43:11Z</time>
      </trkpt>
      <trkpt lat="47.15441" lon="6.6018">
        <ele>524.1</ele>
        <time>2022-08-05T10:43:12Z</time>
      </trkpt>
      <trkpt lat="47.15441" lon="6.60173">
        <ele>525.05</ele>
        <time>2022-08-05T10:43:28Z</time>
      </trkpt>
      <trkpt lat="47.15431" lon="6.60166">
        <ele>527.29</ele>
        <time>2022-08-05T10:43:49Z</time>
      </trkpt>
      <trkpt lat="47.15429" lon="6.60164">
        <ele>531.34</ele>
        <time>2022-08-05T10:44:00Z</time>
      </trkpt>
      <trkpt lat="47.15423" lon="6.60164">
        <ele>534.23</ele>
        <time>2022-08-05T10:44:25Z</time>
      </trkpt>
      <trkpt lat="47.15421" lon="6.60162">
        <ele>534.43</ele>
        <time>2022-08-05T10:44:45Z</time>
      </trkpt>
      <trkpt lat="47.1541" lon="6.60159">
        <ele>535.6</ele>
        <time>2022-08-05T10:45:02Z</time>
      </trkpt>
      <trkpt lat="47.15392" lon="6.60158">
        <ele>539.15</ele>
        <time>2022-08-05T10:45:21Z</time>
      </trkpt>
      <trkpt lat="47.15386" lon="6.60157">
        <ele>540.13</ele>
        <time>2022-08-05T10:45:31Z</time>
      </trkpt>
      <trkpt lat="47.15385" lon="6.60148">
        <ele>542.06</ele>
        <time>2022-08-05T10:45:41Z</time>
      </trkpt>
      <trkpt lat="47.15386" lon="6.60143">
        <ele>542.13</ele>
        <time>2022-08-05T10:45:45Z</time>
      </trkpt>
      <trkpt lat="47.15382" lon="6.60138">
        <ele>545.51</ele>
        <time>2022-08-05T10:46:06Z</time>
      </trkpt>
      <trkpt lat="47.15386" lon="6.60128">
        <ele>547.3</ele>
        <time>2022-08-05T10:46:23Z</time>
      </trkpt>
      <trkpt lat="47.15385" lon="6.60131">
        <ele>548.5</ele>
        <time>2022-08-05T10:46:41Z</time>
      </trkpt>
      <trkpt lat="47.15388" lon="6.60127">
        <ele>548.68</ele>
        <time>2022-08-05T10:46:55Z</time>
      </trkpt>
      <trkpt lat="47.15392" lon="6.60127">
        <ele>548.98</ele>
        <time>2022-08-05T10:47:15Z</time>
      </trkpt>
      <trkpt lat="47.15398" lon="6.60128">
        <ele>550.12</ele>
        <time>2022-08-05T10:47:36Z</time>
      </trkpt>
      <trkpt lat="47.15399" lon="6.60128">
        <ele>550.4</ele>
        <time>2022-08-05T10:47:53Z</time>
      </trkpt>
      <trkpt lat="47.15403" lon="6.60129">
        <ele>550.42</ele>
        <time>2022-08-05T10:47:55Z</time>
      </trkpt>
      <trkpt lat="47.15394" lon="6.60123">
        <ele>550.76</ele>
        <time>2022-08-05T10:48:14Z</time>
      </trkpt>
      <trkpt lat="47.15386" lon="6.60122">
        <ele>550.98</ele>
        <time>2022-08-05T10:48:24Z</time>
      </trkpt>
      <trkpt lat="47.1538" lon="6.60122">
        <ele>552.26</ele>
        <time>2022-08-05T10:48:28Z</time>
      </trkpt>
      <trkpt lat="47.15366" lon="6.60121">
        <ele>555.96</ele>
        <time>2022-08-05T10:48:49Z</time>
      </trkpt>
      <trkpt lat="47.15359" lon="6.60111">
        <ele>559.41</ele>
        <time>2022-08-05T10:49:06Z</time>
      </trkpt>
      <trkpt lat="47.15363" lon="6.60111">
        <ele>561.33</ele>
        <time>2022-08-05T10:49:17Z</time>
      </trkpt>
      <trkpt lat="47.15373" lon="6.60113">
        <ele>564.25</ele>
        <time>2022-08-05T10:49:32Z</time>
      </trkpt>
      <trkpt lat="47.15384" lon="6.60111">
        <ele>567.69</ele>
        <time>2022-08-05T10:49:53Z</time>
      </trkpt>
      <trkpt lat="47.1539" lon="6.60108">
        <ele>571.47</ele>
        <time>2022-08-05T10:50:16Z</time>
      </trkpt>
      <trkpt lat="47.15393" lon="6.60093">
        <ele>574.99</ele>
        <time>2022-08-05T10:50:36Z</time>
      </trkpt>
      <trkpt lat="47.15394" lon="6.60087">
        <ele>575.94</ele>
        <time>2022-08-05T10:50:48Z</time>
      </trkpt>
      <trkpt lat="47.15397" lon="6.60082">
        <ele>579.06</ele>
        <time>2022-08-05T10:51:03Z</time>
      </trkpt>
      <trkpt lat="47.15395" lon="6.60077">
        <ele>582.54</ele>
        <time>2022-08-05T10:51:24Z</time>
      </trkpt>
      <trkpt lat="47.1539" lon="6.6007">
        <ele>583.64</ele>
        <time>2022-08-05T10:51:47Z</time>
      </trkpt>
      <trkpt lat="47.15385" lon="6.60068">
        <ele>587.03</ele>
        <time>2022-08-05T10:52:08Z</time>
      </trkpt>
      <trkpt lat="47.15383" lon="6.60066">
        <ele>587.06</ele>
        <time>2022-08-05T10:52:09Z</time>
      </trkpt>
      <trkpt lat="47.15376" lon="6.60062">
        <ele>590.41</ele>
        <time>2022-08-05T10:52:32Z</time>
      </trkpt>
      <trkpt lat="47.15366" lon="6.60055">
        <ele>592.32</ele>
        <time>2022-08-05T10:52:46Z</time>
      </trkpt>
      <trkpt lat="47.15357" lon="6.6005">
        <ele>595.48</ele>
        <time>2022-08-05T10:53:02Z</time>
      </trkpt>
      <trkpt lat="47.15342" lon="6.60042">
        <ele>598.14</ele>
        <time>2022-08-05T10:53:23Z</time>
      </trkpt>
      <trkpt lat="47.15338" lon="6.60026">
        <ele>598.98</ele>
        <time>2022-08-05T10:53:46Z</time>
      </trkpt>
      <trkpt lat="47.15334" lon="6.60016">
        <ele>600.09</ele>
        <time>2022-08-05T10:54:08Z</time>
      </trkpt>
      <trkpt lat="47.15335" lon="6.60003">
        <ele>601.21</ele>
        <time>2022-08-05T10:54:27Z</time>
      </trkpt>
      <trkpt lat="47.15336" lon="6.5999">
        <ele>601.44</ele>
        <time>2022-08-05T10:54:45Z</time>
      </trkpt>
      <trkpt lat="47.15337" lon="6.59988">
        <ele>601.81</ele>
        <time>2022-08-05T10:55:09Z</time>
      </trkpt>
      <trkpt lat="47.15339" lon="6.59986">
        <ele>602.2</ele>
        <time>2022-08-05T10:55:32Z</time>
      </trkpt>
      <trkpt lat="47.15336" lon="6.59982">
        <ele>602.52</ele>
        <time>2022-08-05T10:55:51Z</time>
      </trkpt>
      <trkpt lat="47.15331" lon="6.59996">
        <ele>606.43</ele>
        <time>2022-08-05T10:56:09Z</time>
      </trkpt>
      <trkpt lat="47.15323" lon="6.60002">
        <ele>609.46</ele>
        <time>2022-08-05T10:56:28Z</time>
      </trkpt>
      <trkpt lat="47.15319" lon="6.60007">
        <ele>612.88</ele>
        <time>2022-08-05T10:56:40Z</time>
      </trkpt>
      <trkpt lat="47.15311" lon="6.60018">
        <ele>616.65</ele>
        <time>2022-08-05T10:56:57Z</time>
      </trkpt>
      <trkpt lat="47.15302" lon="6.60033">
        <ele>620.3</ele>
        <time>2022-08-05T10:57:16Z</time>
      </trkpt>
      <trkpt lat="47.15295" lon="6.60049">
        <ele>623.05</ele>
        <time>2022-08-05T10:57:40Z</time>
      </trkpt>
      <trkpt lat="47.15298" lon="6.6006">
        <ele>623.95</ele>
        <time>2022-08-05T10:57:58Z</time>
      </trkpt>
      <trkpt lat="47.15293" lon="6.60063">
        <ele>624.96</ele>
        <time>2022-08-05T10:58:17Z</time>
      </trkpt>
      <trkpt lat="47.15291" lon="6.60075">
        <ele>625.3</ele>
        <time>2022-08-05T10:58:42Z</time>
      </trkpt>
      <trkpt lat="47.15285" lon="6.60096">
        <ele>626.67</ele>
        <time>2022-08-05T10:59:05Z</time>
      </trkpt>
      <trkpt lat="47.15277" lon="6.60117">
        <ele>626.99</ele>
        <time>2022-08-05T10:59:30Z</time>
      </trkpt>
      <trkpt lat="47.15271" lon="6.60148">
        <ele>628.18</ele>
        <time>2022-08-05T10:59:52Z</time>
      </trkpt>
      <trkpt lat="47.1527" lon="6.60176">
        <ele>631.09</ele>
        <time>2022-08-05T11:00:16Z</time>
      </trkpt>
      <trkpt lat="47.15267" lon="6.60202">
        <ele>632.17</ele>
        <time>2022-08-05T11:00:38Z</time>
      </trkpt>
      <trkpt lat="47.15265" lon="6.60214">
        <ele>630.01</ele>
        <time>2022-08-05T11:00:56Z</time>
      </trkpt>
      <trkpt lat="47.15263" lon="6.60238">
        <ele>627.59</ele>
        <time>2022-08-05T11:01:13Z</time>
      </trkpt>
      <trkpt lat="47.1527" lon="6.60269">
        <ele>626.33</ele>
        <time>2022-08-05T11:01:34Z</time>
      </trkpt>
      <trkpt lat="47.15273" lon="6.60292">
        <ele>624.05</ele>
        <time>2022-08-05T11:01:55Z</time>
      </trkpt>
      <trkpt lat="47.15274" lon="6.60295">
        <ele>621.2</ele>
        <time>2022-08-05T11:02:16Z</time>
      </trkpt>
      <trkpt lat="47.15274" lon="6.60295">
        <ele>624.9</ele>
        <time>2022-08-05T11:02:18Z</time>
      </trkpt>
      <trkpt lat="47.15273" lon="6.60295">
        <ele>619.31</ele>
        <time>2022-08-05T11:02:19Z</time>
      </trkpt>
      <trkpt lat="47.15273" lon="6.60296">
        <ele>626.32</ele>
        <time>2022-08-05T11:02:20Z</time>
      </trkpt>
      <trkpt lat="47.15273" lon="6.60296">
        <ele>626.35</ele>
        <time>2022-08-05T11:02:21Z</time>
      </trkpt>
      <trkpt lat="47.15273" lon="6.60297">
        <ele>623.87</ele>
        <time>2022-08-05T11:02:25Z</time>
      </trkpt>
      <trkpt lat="47.15279" lon="6.60294">
        <ele>623.4</ele>
        <time>2022-08-05T11:02:45Z</time>
      </trkpt>
      <trkpt lat="47.15281" lon="6.60298">
        <ele>623.9</ele>
        <time>2022-08-05T11:03:10Z</time>
      </trkpt>
      <trkpt lat="47.15282" lon="6.60296">
        <ele>624.47</ele>
        <time>2022-08-05T11:03:36Z</time>
      </trkpt>
      <trkpt lat="47.15282" lon="6.60294">
        <ele>627.63</ele>
        <time>2022-08-05T11:03:50Z</time>
      </trkpt>
      <trkpt lat="47.15282" lon="6.60294">
        <ele>627.64</ele>
        <time>2022-08-05T11:03:51Z</time>
      </trkpt>
      <trkpt lat="47.15281" lon="6.60292">
        <ele>616.62</ele>
        <time>2022-08-05T11:03:58Z</time>
      </trkpt>
      <trkpt lat="47.15281" lon="6.60292">
        <ele>629.63</ele>
        <time>2022-08-05T11:03:59Z</time>
      </trkpt>
      <trkpt lat="47.15282" lon="6.60292">
        <ele>629.66</ele>
        <time>2022-08-05T11:04:00Z</time>
      </trkpt>
      <trkpt lat="47.15281" lon="6.60291">
        <ele>627.07</ele>
        <time>2022-08-05T11:04:02Z</time>
      </trkpt>
      <trkpt lat="47.15281" lon="6.60289">
        <ele>619.73</ele>
        <time>2022-08-05T11:04:07Z</time>
      </trkpt>
      <trkpt lat="47.1528" lon="6.60289">
        <ele>626.97</ele>
        <time>2022-08-05T11:04:08Z</time>
      </trkpt>
      <trkpt lat="47.15281" lon="6.60289">
        <ele>627.84</ele>
        <time>2022-08-05T11:04:10Z</time>
      </trkpt>
      <trkpt lat="47.15281" lon="6.60289">
        <ele>615.16</ele>
        <time>2022-08-05T11:04:12Z</time>
      </trkpt>
      <trkpt lat="47.15281" lon="6.60289">
        <ele>627.74</ele>
        <time>2022-08-05T11:04:13Z</time>
      </trkpt>
      <trkpt lat="47.15281" lon="6.60288">
        <ele>624.52</ele>
        <time>2022-08-05T11:04:21Z</time>
      </trkpt>
      <trkpt lat="47.15279" lon="6.60291">
        <ele>624.73</ele>
        <time>2022-08-05T11:04:45Z</time>
      </trkpt>
      <trkpt lat="47.1528" lon="6.60291">
        <ele>621.33</ele>
        <time>2022-08-05T11:04:46Z</time>
      </trkpt>
      <trkpt lat="47.1528" lon="6.6029">
        <ele>621.35</ele>
        <time>2022-08-05T11:04:47Z</time>
      </trkpt>
      <trkpt lat="47.1528" lon="6.60291">
        <ele>630.76</ele>
        <time>2022-08-05T11:04:48Z</time>
      </trkpt>
      <trkpt lat="47.1528" lon="6.60291">
        <ele>630.77</ele>
        <time>2022-08-05T11:04:49Z</time>
      </trkpt>
      <trkpt lat="47.15279" lon="6.60291">
        <ele>627.24</ele>
        <time>2022-08-05T11:04:50Z</time>
      </trkpt>
      <trkpt lat="47.15279" lon="6.60291">
        <ele>627.12</ele>
        <time>2022-08-05T11:04:51Z</time>
      </trkpt>
      <trkpt lat="47.1528" lon="6.60291">
        <ele>625.83</ele>
        <time>2022-08-05T11:05:16Z</time>
      </trkpt>
      <trkpt lat="47.15281" lon="6.6029">
        <ele>626.36</ele>
        <time>2022-08-05T11:05:47Z</time>
      </trkpt>
      <trkpt lat="47.15279" lon="6.60289">
        <ele>626.83</ele>
        <time>2022-08-05T11:06:16Z</time>
      </trkpt>
      <trkpt lat="47.1528" lon="6.60289">
        <ele>627.31</ele>
        <time>2022-08-05T11:06:44Z</time>
      </trkpt>
      <trkpt lat="47.15281" lon="6.60288">
        <ele>627.74</ele>
        <time>2022-08-05T11:07:10Z</time>
      </trkpt>
      <trkpt lat="47.15282" lon="6.60288">
        <ele>628.12</ele>
        <time>2022-08-05T11:07:33Z</time>
      </trkpt>
      <trkpt lat="47.15282" lon="6.6029">
        <ele>628.64</ele>
        <time>2022-08-05T11:08:04Z</time>
      </trkpt>
      <trkpt lat="47.1528" lon="6.60294">
        <ele>629.11</ele>
        <time>2022-08-05T11:08:32Z</time>
      </trkpt>
      <trkpt lat="47.15279" lon="6.60291">
        <ele>629.49</ele>
        <time>2022-08-05T11:08:57Z</time>
      </trkpt>
      <trkpt lat="47.1528" lon="6.60288">
        <ele>630.02</ele>
        <time>2022-08-05T11:09:29Z</time>
      </trkpt>
      <trkpt lat="47.15281" lon="6.6029">
        <ele>630.5</ele>
        <time>2022-08-05T11:09:58Z</time>
      </trkpt>
      <trkpt lat="47.1528" lon="6.60291">
        <ele>630.91</ele>
        <time>2022-08-05T11:10:25Z</time>
      </trkpt>
      <trkpt lat="47.1528" lon="6.60291">
        <ele>631.31</ele>
        <time>2022-08-05T11:10:52Z</time>
      </trkpt>
      <trkpt lat="47.1528" lon="6.60291">
        <ele>631.75</ele>
        <time>2022-08-05T11:11:23Z</time>
      </trkpt>
      <trkpt lat="47.1528" lon="6.60289">
        <ele>632.13</ele>
        <time>2022-08-05T11:11:51Z</time>
      </trkpt>
      <trkpt lat="47.1528" lon="6.60291">
        <ele>632.51</ele>
        <time>2022-08-05T11:12:19Z</time>
      </trkpt>
      <trkpt lat="47.15281" lon="6.60288">
        <ele>632.85</ele>
        <time>2022-08-05T11:12:46Z</time>
      </trkpt>
      <trkpt lat="47.15283" lon="6.60288">
        <ele>633.23</ele>
        <time>2022-08-05T11:13:16Z</time>
      </trkpt>
      <trkpt lat="47.15283" lon="6.60289">
        <ele>633.55</ele>
        <time>2022-08-05T11:13:41Z</time>
      </trkpt>
      <trkpt lat="47.15284" lon="6.6029">
        <ele>633.14</ele>
        <time>2022-08-05T11:14:08Z</time>
      </trkpt>
      <trkpt lat="47.15283" lon="6.60288">
        <ele>633.47</ele>
        <time>2022-08-05T11:14:35Z</time>
      </trkpt>
      <trkpt lat="47.15284" lon="6.60291">
        <ele>633.81</ele>
        <time>2022-08-05T11:15:04Z</time>
      </trkpt>
      <trkpt lat="47.15285" lon="6.60294">
        <ele>634.14</ele>
        <time>2022-08-05T11:15:34Z</time>
      </trkpt>
      <trkpt lat="47.15285" lon="6.60294">
        <ele>634.46</ele>
        <time>2022-08-05T11:16:03Z</time>
      </trkpt>
      <trkpt lat="47.15286" lon="6.60294">
        <ele>634.71</ele>
        <time>2022-08-05T11:16:28Z</time>
      </trkpt>
      <trkpt lat="47.15285" lon="6.6029">
        <ele>635.01</ele>
        <time>2022-08-05T11:16:55Z</time>
      </trkpt>
      <trkpt lat="47.15283" lon="6.60289">
        <ele>635.29</ele>
        <time>2022-08-05T11:17:20Z</time>
      </trkpt>
      <trkpt lat="47.15285" lon="6.60289">
        <ele>635.54</ele>
        <time>2022-08-05T11:17:43Z</time>
      </trkpt>
      <trkpt lat="47.15285" lon="6.60285">
        <ele>635.82</ele>
        <time>2022-08-05T11:18:09Z</time>
      </trkpt>
      <trkpt lat="47.15286" lon="6.60287">
        <ele>636.09</ele>
        <time>2022-08-05T11:18:34Z</time>
      </trkpt>
      <trkpt lat="47.15284" lon="6.60283">
        <ele>636.36</ele>
        <time>2022-08-05T11:18:59Z</time>
      </trkpt>
      <trkpt lat="47.15286" lon="6.60287">
        <ele>636.64</ele>
        <time>2022-08-05T11:19:25Z</time>
      </trkpt>
      <trkpt lat="47.15288" lon="6.60293">
        <ele>636.95</ele>
        <time>2022-08-05T11:19:52Z</time>
      </trkpt>
      <trkpt lat="47.15285" lon="6.60291">
        <ele>637.3</ele>
        <time>2022-08-05T11:20:22Z</time>
      </trkpt>
      <trkpt lat="47.15283" lon="6.60289">
        <ele>637.72</ele>
        <time>2022-08-05T11:21:01Z</time>
      </trkpt>
      <trkpt lat="47.15282" lon="6.60289">
        <ele>638.09</ele>
        <time>2022-08-05T11:21:38Z</time>
      </trkpt>
      <trkpt lat="47.15283" lon="6.60289">
        <ele>638.34</ele>
        <time>2022-08-05T11:22:04Z</time>
      </trkpt>
      <trkpt lat="47.15284" lon="6.6029">
        <ele>638.59</ele>
        <time>2022-08-05T11:22:30Z</time>
      </trkpt>
      <trkpt lat="47.15282" lon="6.60289">
        <ele>638.83</ele>
        <time>2022-08-05T11:22:57Z</time>
      </trkpt>
      <trkpt lat="47.15283" lon="6.60292">
        <ele>639.04</ele>
        <time>2022-08-05T11:23:22Z</time>
      </trkpt>
      <trkpt lat="47.15283" lon="6.60294">
        <ele>639.27</ele>
        <time>2022-08-05T11:23:50Z</time>
      </trkpt>
      <trkpt lat="47.15282" lon="6.60291">
        <ele>639.46</ele>
        <time>2022-08-05T11:24:17Z</time>
      </trkpt>
      <trkpt lat="47.1528" lon="6.60287">
        <ele>639.65</ele>
        <time>2022-08-05T11:24:43Z</time>
      </trkpt>
      <trkpt lat="47.15281" lon="6.60289">
        <ele>639.88</ele>
        <time>2022-08-05T11:25:13Z</time>
      </trkpt>
      <trkpt lat="47.15281" lon="6.6029">
        <ele>640.15</ele>
        <time>2022-08-05T11:25:50Z</time>
      </trkpt>
      <trkpt lat="47.15281" lon="6.6029">
        <ele>640.4</ele>
        <time>2022-08-05T11:26:22Z</time>
      </trkpt>
      <trkpt lat="47.15281" lon="6.60292">
        <ele>640.64</ele>
        <time>2022-08-05T11:26:56Z</time>
      </trkpt>
      <trkpt lat="47.15278" lon="6.6029">
        <ele>640.87</ele>
        <time>2022-08-05T11:27:34Z</time>
      </trkpt>
      <trkpt lat="47.15278" lon="6.60288">
        <ele>642.51</ele>
        <time>2022-08-05T11:27:47Z</time>
      </trkpt>
      <trkpt lat="47.15278" lon="6.60288">
        <ele>640.18</ele>
        <time>2022-08-05T11:27:51Z</time>
      </trkpt>
      <trkpt lat="47.15277" lon="6.60289">
        <ele>640.36</ele>
        <time>2022-08-05T11:28:20Z</time>
      </trkpt>
      <trkpt lat="47.15277" lon="6.60284">
        <ele>640.57</ele>
        <time>2022-08-05T11:28:53Z</time>
      </trkpt>
      <trkpt lat="47.15281" lon="6.60286">
        <ele>640.81</ele>
        <time>2022-08-05T11:29:26Z</time>
      </trkpt>
      <trkpt lat="47.15281" lon="6.60287">
        <ele>640.97</ele>
        <time>2022-08-05T11:29:56Z</time>
      </trkpt>
      <trkpt lat="47.15281" lon="6.60288">
        <ele>641.16</ele>
        <time>2022-08-05T11:30:27Z</time>
      </trkpt>
      <trkpt lat="47.15283" lon="6.60291">
        <ele>641.33</ele>
        <time>2022-08-05T11:30:57Z</time>
      </trkpt>
      <trkpt lat="47.15283" lon="6.60289">
        <ele>641.5</ele>
        <time>2022-08-05T11:31:26Z</time>
      </trkpt>
      <trkpt lat="47.1528" lon="6.60287">
        <ele>641.67</ele>
        <time>2022-08-05T11:31:54Z</time>
      </trkpt>
      <trkpt lat="47.15281" lon="6.60291">
        <ele>641.84</ele>
        <time>2022-08-05T11:32:23Z</time>
      </trkpt>
      <trkpt lat="47.15282" lon="6.6029">
        <ele>641.98</ele>
        <time>2022-08-05T11:32:48Z</time>
      </trkpt>
      <trkpt lat="47.15283" lon="6.60288">
        <ele>642.18</ele>
        <time>2022-08-05T11:33:23Z</time>
      </trkpt>
      <trkpt lat="47.15282" lon="6.60287">
        <ele>642.32</ele>
        <time>2022-08-05T11:33:53Z</time>
      </trkpt>
      <trkpt lat="47.15284" lon="6.60293">
        <ele>642.46</ele>
        <time>2022-08-05T11:34:24Z</time>
      </trkpt>
      <trkpt lat="47.15285" lon="6.60296">
        <ele>642.59</ele>
        <time>2022-08-05T11:34:54Z</time>
      </trkpt>
      <trkpt lat="47.15284" lon="6.60293">
        <ele>642.7</ele>
        <time>2022-08-05T11:35:22Z</time>
      </trkpt>
      <trkpt lat="47.15282" lon="6.60292">
        <ele>642.81</ele>
        <time>2022-08-05T11:35:47Z</time>
      </trkpt>
      <trkpt lat="47.15282" lon="6.60291">
        <ele>642.92</ele>
        <time>2022-08-05T11:36:15Z</time>
      </trkpt>
      <trkpt lat="47.15282" lon="6.60292">
        <ele>643.01</ele>
        <time>2022-08-05T11:36:41Z</time>
      </trkpt>
      <trkpt lat="47.15283" lon="6.60294">
        <ele>643.09</ele>
        <time>2022-08-05T11:37:06Z</time>
      </trkpt>
      <trkpt lat="47.15283" lon="6.60291">
        <ele>643.16</ele>
        <time>2022-08-05T11:37:33Z</time>
      </trkpt>
      <trkpt lat="47.15283" lon="6.60291">
        <ele>643.24</ele>
        <time>2022-08-05T11:37:56Z</time>
      </trkpt>
      <trkpt lat="47.15278" lon="6.60289">
        <ele>643.27</ele>
        <time>2022-08-05T11:38:14Z</time>
      </trkpt>
      <trkpt lat="47.15276" lon="6.60281">
        <ele>645.63</ele>
        <time>2022-08-05T11:38:27Z</time>
      </trkpt>
      <trkpt lat="47.15271" lon="6.60263">
        <ele>648.4</ele>
        <time>2022-08-05T11:38:49Z</time>
      </trkpt>
      <trkpt lat="47.15265" lon="6.60246">
        <ele>648.31</ele>
        <time>2022-08-05T11:39:08Z</time>
      </trkpt>
      <trkpt lat="47.15267" lon="6.60232">
        <ele>651.93</ele>
        <time>2022-08-05T11:39:23Z</time>
      </trkpt>
      <trkpt lat="47.15269" lon="6.60217">
        <ele>654.6</ele>
        <time>2022-08-05T11:39:42Z</time>
      </trkpt>
      <trkpt lat="47.15268" lon="6.60202">
        <ele>654.55</ele>
        <time>2022-08-05T11:40:00Z</time>
      </trkpt>
      <trkpt lat="47.15269" lon="6.60181">
        <ele>654.53</ele>
        <time>2022-08-05T11:40:17Z</time>
      </trkpt>
      <trkpt lat="47.1527" lon="6.60168">
        <ele>652.19</ele>
        <time>2022-08-05T11:40:28Z</time>
      </trkpt>
      <trkpt lat="47.1527" lon="6.60145">
        <ele>652.13</ele>
        <time>2022-08-05T11:40:48Z</time>
      </trkpt>
      <trkpt lat="47.15275" lon="6.60128">
        <ele>651.3</ele>
        <time>2022-08-05T11:41:10Z</time>
      </trkpt>
      <trkpt lat="47.15282" lon="6.6011">
        <ele>651.31</ele>
        <time>2022-08-05T11:41:27Z</time>
      </trkpt>
      <trkpt lat="47.15286" lon="6.60088">
        <ele>648.6</ele>
        <time>2022-08-05T11:41:49Z</time>
      </trkpt>
      <trkpt lat="47.15291" lon="6.60078">
        <ele>648.67</ele>
        <time>2022-08-05T11:42:07Z</time>
      </trkpt>
      <trkpt lat="47.15298" lon="6.60065">
        <ele>648.72</ele>
        <time>2022-08-05T11:42:28Z</time>
      </trkpt>
      <trkpt lat="47.15302" lon="6.60065">
        <ele>648.8</ele>
        <time>2022-08-05T11:42:50Z</time>
      </trkpt>
      <trkpt lat="47.15303" lon="6.60063">
        <ele>648.91</ele>
        <time>2022-08-05T11:43:16Z</time>
      </trkpt>
      <trkpt lat="47.15305" lon="6.60054">
        <ele>649</ele>
        <time>2022-08-05T11:43:35Z</time>
      </trkpt>
      <trkpt lat="47.15311" lon="6.60054">
        <ele>649.08</ele>
        <time>2022-08-05T11:43:54Z</time>
      </trkpt>
      <trkpt lat="47.15313" lon="6.60053">
        <ele>649.16</ele>
        <time>2022-08-05T11:44:17Z</time>
      </trkpt>
      <trkpt lat="47.15301" lon="6.6005">
        <ele>649.24</ele>
        <time>2022-08-05T11:44:40Z</time>
      </trkpt>
      <trkpt lat="47.15301" lon="6.60034">
        <ele>645.64</ele>
        <time>2022-08-05T11:45:02Z</time>
      </trkpt>
      <trkpt lat="47.15307" lon="6.60023">
        <ele>643.25</ele>
        <time>2022-08-05T11:45:25Z</time>
      </trkpt>
      <trkpt lat="47.15314" lon="6.60014">
        <ele>640.07</ele>
        <time>2022-08-05T11:45:45Z</time>
      </trkpt>
      <trkpt lat="47.15322" lon="6.60005">
        <ele>636.62</ele>
        <time>2022-08-05T11:46:03Z</time>
      </trkpt>
      <trkpt lat="47.1533" lon="6.59994">
        <ele>633.45</ele>
        <time>2022-08-05T11:46:16Z</time>
      </trkpt>
      <trkpt lat="47.15339" lon="6.59982">
        <ele>629.98</ele>
        <time>2022-08-05T11:46:34Z</time>
      </trkpt>
      <trkpt lat="47.15328" lon="6.59983">
        <ele>630.27</ele>
        <time>2022-08-05T11:46:51Z</time>
      </trkpt>
      <trkpt lat="47.15326" lon="6.59984">
        <ele>628.8</ele>
        <time>2022-08-05T11:46:54Z</time>
      </trkpt>
      <trkpt lat="47.15325" lon="6.59983">
        <ele>631.33</ele>
        <time>2022-08-05T11:46:59Z</time>
      </trkpt>
      <trkpt lat="47.15322" lon="6.59986">
        <ele>629.01</ele>
        <time>2022-08-05T11:47:08Z</time>
      </trkpt>
      <trkpt lat="47.15321" lon="6.59976">
        <ele>628.43</ele>
        <time>2022-08-05T11:47:30Z</time>
      </trkpt>
      <trkpt lat="47.15322" lon="6.59974">
        <ele>630.94</ele>
        <time>2022-08-05T11:47:35Z</time>
      </trkpt>
      <trkpt lat="47.15338" lon="6.59963">
        <ele>631.91</ele>
        <time>2022-08-05T11:47:57Z</time>
      </trkpt>
      <trkpt lat="47.1536" lon="6.59956">
        <ele>634.45</ele>
        <time>2022-08-05T11:48:21Z</time>
      </trkpt>
      <trkpt lat="47.15377" lon="6.59948">
        <ele>636.24</ele>
        <time>2022-08-05T11:48:40Z</time>
      </trkpt>
      <trkpt lat="47.15387" lon="6.59938">
        <ele>637.09</ele>
        <time>2022-08-05T11:48:58Z</time>
      </trkpt>
      <trkpt lat="47.15389" lon="6.59932">
        <ele>637.09</ele>
        <time>2022-08-05T11:49:03Z</time>
      </trkpt>
      <trkpt lat="47.15399" lon="6.59907">
        <ele>637.94</ele>
        <time>2022-08-05T11:49:25Z</time>
      </trkpt>
      <trkpt lat="47.15413" lon="6.59888">
        <ele>640.71</ele>
        <time>2022-08-05T11:49:47Z</time>
      </trkpt>
      <trkpt lat="47.15424" lon="6.5987">
        <ele>642.6</ele>
        <time>2022-08-05T11:50:09Z</time>
      </trkpt>
      <trkpt lat="47.15433" lon="6.59856">
        <ele>643.49</ele>
        <time>2022-08-05T11:50:28Z</time>
      </trkpt>
      <trkpt lat="47.15435" lon="6.59831">
        <ele>643.49</ele>
        <time>2022-08-05T11:50:49Z</time>
      </trkpt>
      <trkpt lat="47.15437" lon="6.59816">
        <ele>644.25</ele>
        <time>2022-08-05T11:51:03Z</time>
      </trkpt>
      <trkpt lat="47.15436" lon="6.59781">
        <ele>644.27</ele>
        <time>2022-08-05T11:51:26Z</time>
      </trkpt>
      <trkpt lat="47.15433" lon="6.59749">
        <ele>644.23</ele>
        <time>2022-08-05T11:51:44Z</time>
      </trkpt>
      <trkpt lat="47.15433" lon="6.59743">
        <ele>644.22</ele>
        <time>2022-08-05T11:51:50Z</time>
      </trkpt>
      <trkpt lat="47.15431" lon="6.59716">
        <ele>644.2</ele>
        <time>2022-08-05T11:52:11Z</time>
      </trkpt>
      <trkpt lat="47.15429" lon="6.5969">
        <ele>644.07</ele>
        <time>2022-08-05T11:52:28Z</time>
      </trkpt>
      <trkpt lat="47.15423" lon="6.59677">
        <ele>641.63</ele>
        <time>2022-08-05T11:52:44Z</time>
      </trkpt>
      <trkpt lat="47.15404" lon="6.59657">
        <ele>640.72</ele>
        <time>2022-08-05T11:53:11Z</time>
      </trkpt>
      <trkpt lat="47.15398" lon="6.59652">
        <ele>640.7</ele>
        <time>2022-08-05T11:53:17Z</time>
      </trkpt>
      <trkpt lat="47.15396" lon="6.59648">
        <ele>640.69</ele>
        <time>2022-08-05T11:53:20Z</time>
      </trkpt>
      <trkpt lat="47.15392" lon="6.5964">
        <ele>640.67</ele>
        <time>2022-08-05T11:53:25Z</time>
      </trkpt>
      <trkpt lat="47.15385" lon="6.59638">
        <ele>639.82</ele>
        <time>2022-08-05T11:53:34Z</time>
      </trkpt>
      <trkpt lat="47.15383" lon="6.59637">
        <ele>639.8</ele>
        <time>2022-08-05T11:53:37Z</time>
      </trkpt>
      <trkpt lat="47.1537" lon="6.59627">
        <ele>639.75</ele>
        <time>2022-08-05T11:53:55Z</time>
      </trkpt>
      <trkpt lat="47.15369" lon="6.59625">
        <ele>642.17</ele>
        <time>2022-08-05T11:53:59Z</time>
      </trkpt>
      <trkpt lat="47.15368" lon="6.59624">
        <ele>643.28</ele>
        <time>2022-08-05T11:54:01Z</time>
      </trkpt>
      <trkpt lat="47.15357" lon="6.59613">
        <ele>645.64</ele>
        <time>2022-08-05T11:54:21Z</time>
      </trkpt>
      <trkpt lat="47.15345" lon="6.59617">
        <ele>646.55</ele>
        <time>2022-08-05T11:54:38Z</time>
      </trkpt>
      <trkpt lat="47.15333" lon="6.59615">
        <ele>647.22</ele>
        <time>2022-08-05T11:54:58Z</time>
      </trkpt>
      <trkpt lat="47.15326" lon="6.59614">
        <ele>649.69</ele>
        <time>2022-08-05T11:55:14Z</time>
      </trkpt>
      <trkpt lat="47.15314" lon="6.59611">
        <ele>649.5</ele>
        <time>2022-08-05T11:55:32Z</time>
      </trkpt>
      <trkpt lat="47.15303" lon="6.59609">
        <ele>649.43</ele>
        <time>2022-08-05T11:55:50Z</time>
      </trkpt>
      <trkpt lat="47.153" lon="6.59606">
        <ele>646.99</ele>
        <time>2022-08-05T11:55:54Z</time>
      </trkpt>
      <trkpt lat="47.15294" lon="6.59603">
        <ele>646.22</ele>
        <time>2022-08-05T11:56:06Z</time>
      </trkpt>
      <trkpt lat="47.15288" lon="6.59599">
        <ele>646.2</ele>
        <time>2022-08-05T11:56:12Z</time>
      </trkpt>
      <trkpt lat="47.1528" lon="6.59592">
        <ele>645.43</ele>
        <time>2022-08-05T11:56:22Z</time>
      </trkpt>
      <trkpt lat="47.15259" lon="6.59609">
        <ele>645.45</ele>
        <time>2022-08-05T11:56:42Z</time>
      </trkpt>
      <trkpt lat="47.15241" lon="6.59639">
        <ele>645.42</ele>
        <time>2022-08-05T11:57:09Z</time>
      </trkpt>
      <trkpt lat="47.15227" lon="6.59645">
        <ele>644.65</ele>
        <time>2022-08-05T11:57:31Z</time>
      </trkpt>
      <trkpt lat="47.1522" lon="6.59663">
        <ele>644.75</ele>
        <time>2022-08-05T11:57:48Z</time>
      </trkpt>
      <trkpt lat="47.1522" lon="6.59664">
        <ele>644.75</ele>
        <time>2022-08-05T11:57:49Z</time>
      </trkpt>
      <trkpt lat="47.1521" lon="6.59664">
        <ele>644.88</ele>
        <time>2022-08-05T11:58:22Z</time>
      </trkpt>
      <trkpt lat="47.1521" lon="6.59665">
        <ele>647.28</ele>
        <time>2022-08-05T11:58:24Z</time>
      </trkpt>
      <trkpt lat="47.15208" lon="6.59686">
        <ele>647.46</ele>
        <time>2022-08-05T11:58:51Z</time>
      </trkpt>
      <trkpt lat="47.15199" lon="6.59716">
        <ele>649.3</ele>
        <time>2022-08-05T11:59:18Z</time>
      </trkpt>
      <trkpt lat="47.15197" lon="6.59736">
        <ele>650.18</ele>
        <time>2022-08-05T11:59:34Z</time>
      </trkpt>
      <trkpt lat="47.15193" lon="6.5975">
        <ele>653.58</ele>
        <time>2022-08-05T11:59:48Z</time>
      </trkpt>
      <trkpt lat="47.15182" lon="6.59773">
        <ele>656.3</ele>
        <time>2022-08-05T12:00:10Z</time>
      </trkpt>
      <trkpt lat="47.15166" lon="6.59796">
        <ele>658.71</ele>
        <time>2022-08-05T12:00:31Z</time>
      </trkpt>
      <trkpt lat="47.15155" lon="6.59811">
        <ele>658.75</ele>
        <time>2022-08-05T12:00:50Z</time>
      </trkpt>
      <trkpt lat="47.15154" lon="6.59816">
        <ele>658.78</ele>
        <time>2022-08-05T12:01:08Z</time>
      </trkpt>
      <trkpt lat="47.15156" lon="6.59819">
        <ele>658.92</ele>
        <time>2022-08-05T12:01:21Z</time>
      </trkpt>
      <trkpt lat="47.15152" lon="6.5982">
        <ele>658.96</ele>
        <time>2022-08-05T12:01:36Z</time>
      </trkpt>
      <trkpt lat="47.15156" lon="6.59817">
        <ele>658.97</ele>
        <time>2022-08-05T12:01:42Z</time>
      </trkpt>
      <trkpt lat="47.15159" lon="6.59836">
        <ele>661.71</ele>
        <time>2022-08-05T12:01:58Z</time>
      </trkpt>
      <trkpt lat="47.15154" lon="6.59843">
        <ele>661.77</ele>
        <time>2022-08-05T12:02:05Z</time>
      </trkpt>
      <trkpt lat="47.15148" lon="6.59858">
        <ele>662.54</ele>
        <time>2022-08-05T12:02:17Z</time>
      </trkpt>
      <trkpt lat="47.15151" lon="6.59871">
        <ele>664.59</ele>
        <time>2022-08-05T12:02:33Z</time>
      </trkpt>
      <trkpt lat="47.15153" lon="6.59876">
        <ele>660.3</ele>
        <time>2022-08-05T12:02:52Z</time>
      </trkpt>
      <trkpt lat="47.15153" lon="6.59878">
        <ele>664.7</ele>
        <time>2022-08-05T12:02:53Z</time>
      </trkpt>
      <trkpt lat="47.15161" lon="6.59904">
        <ele>666.54</ele>
        <time>2022-08-05T12:03:14Z</time>
      </trkpt>
      <trkpt lat="47.15161" lon="6.59905">
        <ele>666.56</ele>
        <time>2022-08-05T12:03:15Z</time>
      </trkpt>
      <trkpt lat="47.15163" lon="6.59909">
        <ele>668.71</ele>
        <time>2022-08-05T12:03:18Z</time>
      </trkpt>
      <trkpt lat="47.1517" lon="6.5993">
        <ele>669.89</ele>
        <time>2022-08-05T12:03:35Z</time>
      </trkpt>
      <trkpt lat="47.15169" lon="6.59956">
        <ele>672.39</ele>
        <time>2022-08-05T12:03:54Z</time>
      </trkpt>
      <trkpt lat="47.15155" lon="6.59979">
        <ele>674</ele>
        <time>2022-08-05T12:04:15Z</time>
      </trkpt>
      <trkpt lat="47.15143" lon="6.59991">
        <ele>675.88</ele>
        <time>2022-08-05T12:04:32Z</time>
      </trkpt>
      <trkpt lat="47.15135" lon="6.59996">
        <ele>676.39</ele>
        <time>2022-08-05T12:04:52Z</time>
      </trkpt>
      <trkpt lat="47.15135" lon="6.59995">
        <ele>682.26</ele>
        <time>2022-08-05T12:04:55Z</time>
      </trkpt>
      <trkpt lat="47.15135" lon="6.59995">
        <ele>682.27</ele>
        <time>2022-08-05T12:04:56Z</time>
      </trkpt>
      <trkpt lat="47.15135" lon="6.59995">
        <ele>679.44</ele>
        <time>2022-08-05T12:04:58Z</time>
      </trkpt>
      <trkpt lat="47.15135" lon="6.59995">
        <ele>676.33</ele>
        <time>2022-08-05T12:05:00Z</time>
      </trkpt>
      <trkpt lat="47.15135" lon="6.59995">
        <ele>680.5</ele>
        <time>2022-08-05T12:05:02Z</time>
      </trkpt>
      <trkpt lat="47.15135" lon="6.59995">
        <ele>680.51</ele>
        <time>2022-08-05T12:05:03Z</time>
      </trkpt>
      <trkpt lat="47.15133" lon="6.59994">
        <ele>678</ele>
        <time>2022-08-05T12:05:09Z</time>
      </trkpt>
      <trkpt lat="47.15126" lon="6.59999">
        <ele>678.3</ele>
        <time>2022-08-05T12:05:35Z</time>
      </trkpt>
      <trkpt lat="47.15118" lon="6.59999">
        <ele>680.54</ele>
        <time>2022-08-05T12:05:45Z</time>
      </trkpt>
      <trkpt lat="47.15102" lon="6.60004">
        <ele>683.14</ele>
        <time>2022-08-05T12:06:05Z</time>
      </trkpt>
      <trkpt lat="47.15083" lon="6.60012">
        <ele>686.42</ele>
        <time>2022-08-05T12:06:26Z</time>
      </trkpt>
      <trkpt lat="47.1507" lon="6.60024">
        <ele>688.2</ele>
        <time>2022-08-05T12:06:44Z</time>
      </trkpt>
      <trkpt lat="47.1506" lon="6.60032">
        <ele>690.49</ele>
        <time>2022-08-05T12:06:58Z</time>
      </trkpt>
      <trkpt lat="47.15047" lon="6.60044">
        <ele>694.02</ele>
        <time>2022-08-05T12:07:18Z</time>
      </trkpt>
      <trkpt lat="47.15032" lon="6.60062">
        <ele>695.56</ele>
        <time>2022-08-05T12:07:35Z</time>
      </trkpt>
      <trkpt lat="47.15022" lon="6.60068">
        <ele>697.89</ele>
        <time>2022-08-05T12:07:52Z</time>
      </trkpt>
      <trkpt lat="47.15014" lon="6.60076">
        <ele>701.37</ele>
        <time>2022-08-05T12:08:07Z</time>
      </trkpt>
      <trkpt lat="47.15" lon="6.60086">
        <ele>704.38</ele>
        <time>2022-08-05T12:08:25Z</time>
      </trkpt>
      <trkpt lat="47.14991" lon="6.60103">
        <ele>706.82</ele>
        <time>2022-08-05T12:08:42Z</time>
      </trkpt>
      <trkpt lat="47.14979" lon="6.60111">
        <ele>709.47</ele>
        <time>2022-08-05T12:09:00Z</time>
      </trkpt>
      <trkpt lat="47.14968" lon="6.60115">
        <ele>711.89</ele>
        <time>2022-08-05T12:09:18Z</time>
      </trkpt>
      <trkpt lat="47.14958" lon="6.60122">
        <ele>706.41</ele>
        <time>2022-08-05T12:09:33Z</time>
      </trkpt>
      <trkpt lat="47.14957" lon="6.60123">
        <ele>716.63</ele>
        <time>2022-08-05T12:09:34Z</time>
      </trkpt>
      <trkpt lat="47.14957" lon="6.60124">
        <ele>713.63</ele>
        <time>2022-08-05T12:09:35Z</time>
      </trkpt>
      <trkpt lat="47.14956" lon="6.60125">
        <ele>718.19</ele>
        <time>2022-08-05T12:09:37Z</time>
      </trkpt>
      <trkpt lat="47.14955" lon="6.60125">
        <ele>718.19</ele>
        <time>2022-08-05T12:09:38Z</time>
      </trkpt>
      <trkpt lat="47.14954" lon="6.60126">
        <ele>712.57</ele>
        <time>2022-08-05T12:09:40Z</time>
      </trkpt>
      <trkpt lat="47.14953" lon="6.60127">
        <ele>716.46</ele>
        <time>2022-08-05T12:09:41Z</time>
      </trkpt>
      <trkpt lat="47.14952" lon="6.60127">
        <ele>708.52</ele>
        <time>2022-08-05T12:09:42Z</time>
      </trkpt>
      <trkpt lat="47.14952" lon="6.60128">
        <ele>718.09</ele>
        <time>2022-08-05T12:09:43Z</time>
      </trkpt>
      <trkpt lat="47.14951" lon="6.60128">
        <ele>718.1</ele>
        <time>2022-08-05T12:09:44Z</time>
      </trkpt>
      <trkpt lat="47.1493" lon="6.60137">
        <ele>718.93</ele>
        <time>2022-08-05T12:10:08Z</time>
      </trkpt>
      <trkpt lat="47.14915" lon="6.60146">
        <ele>721.35</ele>
        <time>2022-08-05T12:10:27Z</time>
      </trkpt>
      <trkpt lat="47.14903" lon="6.60157">
        <ele>723.96</ele>
        <time>2022-08-05T12:10:48Z</time>
      </trkpt>
      <trkpt lat="47.14891" lon="6.60168">
        <ele>726.37</ele>
        <time>2022-08-05T12:11:08Z</time>
      </trkpt>
      <trkpt lat="47.14884" lon="6.60168">
        <ele>727.88</ele>
        <time>2022-08-05T12:11:20Z</time>
      </trkpt>
      <trkpt lat="47.14868" lon="6.60183">
        <ele>729.59</ele>
        <time>2022-08-05T12:11:40Z</time>
      </trkpt>
      <trkpt lat="47.14856" lon="6.60195">
        <ele>732.39</ele>
        <time>2022-08-05T12:11:59Z</time>
      </trkpt>
      <trkpt lat="47.14855" lon="6.60197">
        <ele>733.04</ele>
        <time>2022-08-05T12:12:22Z</time>
      </trkpt>
      <trkpt lat="47.14853" lon="6.60195">
        <ele>733.05</ele>
        <time>2022-08-05T12:12:42Z</time>
      </trkpt>
      <trkpt lat="47.14852" lon="6.60195">
        <ele>733.12</ele>
        <time>2022-08-05T12:13:04Z</time>
      </trkpt>
      <trkpt lat="47.1485" lon="6.60196">
        <ele>733.23</ele>
        <time>2022-08-05T12:13:38Z</time>
      </trkpt>
      <trkpt lat="47.14848" lon="6.60197">
        <ele>733.39</ele>
        <time>2022-08-05T12:14:07Z</time>
      </trkpt>
      <trkpt lat="47.14842" lon="6.60206">
        <ele>733.55</ele>
        <time>2022-08-05T12:14:28Z</time>
      </trkpt>
      <trkpt lat="47.14834" lon="6.6022">
        <ele>736.49</ele>
        <time>2022-08-05T12:14:43Z</time>
      </trkpt>
      <trkpt lat="47.14822" lon="6.60239">
        <ele>739.85</ele>
        <time>2022-08-05T12:15:05Z</time>
      </trkpt>
      <trkpt lat="47.14809" lon="6.60256">
        <ele>742.18</ele>
        <time>2022-08-05T12:15:25Z</time>
      </trkpt>
      <trkpt lat="47.14795" lon="6.60273">
        <ele>744.71</ele>
        <time>2022-08-05T12:15:42Z</time>
      </trkpt>
      <trkpt lat="47.14787" lon="6.60289">
        <ele>747.23</ele>
        <time>2022-08-05T12:15:59Z</time>
      </trkpt>
      <trkpt lat="47.14769" lon="6.60302">
        <ele>749.77</ele>
        <time>2022-08-05T12:16:20Z</time>
      </trkpt>
      <trkpt lat="47.14751" lon="6.60304">
        <ele>753.05</ele>
        <time>2022-08-05T12:16:38Z</time>
      </trkpt>
      <trkpt lat="47.14743" lon="6.60312">
        <ele>754.47</ele>
        <time>2022-08-05T12:16:50Z</time>
      </trkpt>
      <trkpt lat="47.14729" lon="6.60312">
        <ele>757.03</ele>
        <time>2022-08-05T12:17:10Z</time>
      </trkpt>
      <trkpt lat="47.14716" lon="6.60312">
        <ele>759.5</ele>
        <time>2022-08-05T12:17:29Z</time>
      </trkpt>
      <trkpt lat="47.14697" lon="6.60317">
        <ele>761.98</ele>
        <time>2022-08-05T12:17:49Z</time>
      </trkpt>
      <trkpt lat="47.14678" lon="6.60322">
        <ele>764.48</ele>
        <time>2022-08-05T12:18:07Z</time>
      </trkpt>
      <trkpt lat="47.14663" lon="6.60317">
        <ele>766.15</ele>
        <time>2022-08-05T12:18:26Z</time>
      </trkpt>
      <trkpt lat="47.14647" lon="6.60319">
        <ele>768.64</ele>
        <time>2022-08-05T12:18:44Z</time>
      </trkpt>
      <trkpt lat="47.14627" lon="6.60314">
        <ele>770.11</ele>
        <time>2022-08-05T12:19:03Z</time>
      </trkpt>
      <trkpt lat="47.14624" lon="6.60312">
        <ele>770.82</ele>
        <time>2022-08-05T12:19:31Z</time>
      </trkpt>
      <trkpt lat="47.1462" lon="6.60308">
        <ele>770.82</ele>
        <time>2022-08-05T12:19:38Z</time>
      </trkpt>
      <trkpt lat="47.1461" lon="6.60303">
        <ele>770.85</ele>
        <time>2022-08-05T12:20:06Z</time>
      </trkpt>
      <trkpt lat="47.14595" lon="6.60303">
        <ele>774.46</ele>
        <time>2022-08-05T12:20:25Z</time>
      </trkpt>
      <trkpt lat="47.14591" lon="6.60315">
        <ele>776.97</ele>
        <time>2022-08-05T12:20:42Z</time>
      </trkpt>
      <trkpt lat="47.14594" lon="6.6033">
        <ele>778.57</ele>
        <time>2022-08-05T12:20:54Z</time>
      </trkpt>
      <trkpt lat="47.14605" lon="6.60346">
        <ele>780.3</ele>
        <time>2022-08-05T12:21:16Z</time>
      </trkpt>
      <trkpt lat="47.14617" lon="6.60358">
        <ele>782.06</ele>
        <time>2022-08-05T12:21:33Z</time>
      </trkpt>
      <trkpt lat="47.14632" lon="6.60372">
        <ele>783.81</ele>
        <time>2022-08-05T12:21:53Z</time>
      </trkpt>
      <trkpt lat="47.1465" lon="6.60392">
        <ele>785.41</ele>
        <time>2022-08-05T12:22:13Z</time>
      </trkpt>
      <trkpt lat="47.14664" lon="6.60402">
        <ele>787.09</ele>
        <time>2022-08-05T12:22:30Z</time>
      </trkpt>
      <trkpt lat="47.14669" lon="6.60404">
        <ele>787.05</ele>
        <time>2022-08-05T12:22:35Z</time>
      </trkpt>
      <trkpt lat="47.14683" lon="6.60415">
        <ele>786.97</ele>
        <time>2022-08-05T12:22:45Z</time>
      </trkpt>
      <trkpt lat="47.14695" lon="6.60425">
        <ele>788.6</ele>
        <time>2022-08-05T12:22:59Z</time>
      </trkpt>
      <trkpt lat="47.14699" lon="6.60429">
        <ele>788.55</ele>
        <time>2022-08-05T12:23:04Z</time>
      </trkpt>
      <trkpt lat="47.14706" lon="6.60436">
        <ele>790.04</ele>
        <time>2022-08-05T12:23:15Z</time>
      </trkpt>
      <trkpt lat="47.14722" lon="6.60448">
        <ele>792.39</ele>
        <time>2022-08-05T12:23:32Z</time>
      </trkpt>
      <trkpt lat="47.14748" lon="6.60465">
        <ele>794.74</ele>
        <time>2022-08-05T12:23:56Z</time>
      </trkpt>
      <trkpt lat="47.14768" lon="6.60476">
        <ele>796.2</ele>
        <time>2022-08-05T12:24:17Z</time>
      </trkpt>
      <trkpt lat="47.14781" lon="6.6048">
        <ele>799.53</ele>
        <time>2022-08-05T12:24:38Z</time>
      </trkpt>
      <trkpt lat="47.14796" lon="6.60484">
        <ele>802.87</ele>
        <time>2022-08-05T12:25:00Z</time>
      </trkpt>
      <trkpt lat="47.14819" lon="6.60487">
        <ele>804.97</ele>
        <time>2022-08-05T12:25:24Z</time>
      </trkpt>
      <trkpt lat="47.14844" lon="6.60485">
        <ele>808.21</ele>
        <time>2022-08-05T12:25:45Z</time>
      </trkpt>
      <trkpt lat="47.14857" lon="6.60484">
        <ele>809.63</ele>
        <time>2022-08-05T12:26:05Z</time>
      </trkpt>
      <trkpt lat="47.14866" lon="6.60485">
        <ele>809.56</ele>
        <time>2022-08-05T12:26:11Z</time>
      </trkpt>
      <trkpt lat="47.14873" lon="6.60486">
        <ele>809.67</ele>
        <time>2022-08-05T12:26:40Z</time>
      </trkpt>
      <trkpt lat="47.14872" lon="6.60489">
        <ele>809.91</ele>
        <time>2022-08-05T12:27:04Z</time>
      </trkpt>
      <trkpt lat="47.14878" lon="6.60501">
        <ele>810.9</ele>
        <time>2022-08-05T12:27:28Z</time>
      </trkpt>
      <trkpt lat="47.14884" lon="6.60505">
        <ele>812.69</ele>
        <time>2022-08-05T12:27:40Z</time>
      </trkpt>
      <trkpt lat="47.14892" lon="6.60521">
        <ele>814.61</ele>
        <time>2022-08-05T12:27:56Z</time>
      </trkpt>
      <trkpt lat="47.14895" lon="6.6053">
        <ele>815.59</ele>
        <time>2022-08-05T12:28:05Z</time>
      </trkpt>
      <trkpt lat="47.14901" lon="6.60553">
        <ele>816.57</ele>
        <time>2022-08-05T12:28:21Z</time>
      </trkpt>
      <trkpt lat="47.14914" lon="6.60567">
        <ele>817.49</ele>
        <time>2022-08-05T12:28:36Z</time>
      </trkpt>
      <trkpt lat="47.14916" lon="6.60568">
        <ele>817.5</ele>
        <time>2022-08-05T12:28:38Z</time>
      </trkpt>
      <trkpt lat="47.14925" lon="6.60577">
        <ele>817.59</ele>
        <time>2022-08-05T12:28:48Z</time>
      </trkpt>
      <trkpt lat="47.14931" lon="6.60599">
        <ele>818.58</ele>
        <time>2022-08-05T12:29:03Z</time>
      </trkpt>
      <trkpt lat="47.14938" lon="6.60618">
        <ele>819.51</ele>
        <time>2022-08-05T12:29:18Z</time>
      </trkpt>
      <trkpt lat="47.1494" lon="6.60623">
        <ele>819.6</ele>
        <time>2022-08-05T12:29:23Z</time>
      </trkpt>
      <trkpt lat="47.14947" lon="6.60637">
        <ele>821.43</ele>
        <time>2022-08-05T12:29:37Z</time>
      </trkpt>
      <trkpt lat="47.14955" lon="6.60659">
        <ele>823.25</ele>
        <time>2022-08-05T12:29:57Z</time>
      </trkpt>
      <trkpt lat="47.14963" lon="6.6068">
        <ele>824.97</ele>
        <time>2022-08-05T12:30:14Z</time>
      </trkpt>
      <trkpt lat="47.14958" lon="6.60692">
        <ele>825.08</ele>
        <time>2022-08-05T12:30:34Z</time>
      </trkpt>
      <trkpt lat="47.14952" lon="6.60702">
        <ele>825.97</ele>
        <time>2022-08-05T12:30:51Z</time>
      </trkpt>
      <trkpt lat="47.14955" lon="6.60711">
        <ele>826.11</ele>
        <time>2022-08-05T12:31:09Z</time>
      </trkpt>
      <trkpt lat="47.14955" lon="6.60715">
        <ele>827.26</ele>
        <time>2022-08-05T12:31:45Z</time>
      </trkpt>
      <trkpt lat="47.14956" lon="6.60711">
        <ele>827.45</ele>
        <time>2022-08-05T12:32:08Z</time>
      </trkpt>
      <trkpt lat="47.14953" lon="6.60706">
        <ele>827.59</ele>
        <time>2022-08-05T12:32:24Z</time>
      </trkpt>
      <trkpt lat="47.14947" lon="6.60709">
        <ele>828.57</ele>
        <time>2022-08-05T12:32:39Z</time>
      </trkpt>
      <trkpt lat="47.14935" lon="6.60728">
        <ele>830.27</ele>
        <time>2022-08-05T12:32:57Z</time>
      </trkpt>
      <trkpt lat="47.14925" lon="6.60744">
        <ele>831.16</ele>
        <time>2022-08-05T12:33:13Z</time>
      </trkpt>
      <trkpt lat="47.14921" lon="6.60751">
        <ele>831.32</ele>
        <time>2022-08-05T12:33:42Z</time>
      </trkpt>
      <trkpt lat="47.14912" lon="6.6076">
        <ele>833.1</ele>
        <time>2022-08-05T12:34:01Z</time>
      </trkpt>
      <trkpt lat="47.14898" lon="6.60771">
        <ele>834.87</ele>
        <time>2022-08-05T12:34:18Z</time>
      </trkpt>
      <trkpt lat="47.14884" lon="6.60774">
        <ele>835.75</ele>
        <time>2022-08-05T12:34:36Z</time>
      </trkpt>
      <trkpt lat="47.14859" lon="6.60763">
        <ele>835.82</ele>
        <time>2022-08-05T12:35:00Z</time>
      </trkpt>
      <trkpt lat="47.14858" lon="6.60763">
        <ele>832.3</ele>
        <time>2022-08-05T12:35:01Z</time>
      </trkpt>
      <trkpt lat="47.14857" lon="6.60763">
        <ele>836.22</ele>
        <time>2022-08-05T12:35:03Z</time>
      </trkpt>
      <trkpt lat="47.14857" lon="6.60762">
        <ele>836.21</ele>
        <time>2022-08-05T12:35:04Z</time>
      </trkpt>
      <trkpt lat="47.14856" lon="6.60762">
        <ele>832.77</ele>
        <time>2022-08-05T12:35:06Z</time>
      </trkpt>
      <trkpt lat="47.14856" lon="6.60762">
        <ele>836</ele>
        <time>2022-08-05T12:35:07Z</time>
      </trkpt>
      <trkpt lat="47.14856" lon="6.60762">
        <ele>898.12</ele>
        <time>2022-08-05T12:35:09Z</time>
      </trkpt>
    </trkseg>
  </trk>
</gpx>